Wetterdaten: aktuell Montag, 25.10.2021 10:47
Datum Zeit Temp. A. Feuchte A. Luftdruck Regen Wind Richtung Richtung Taupunkt Windchill Windben Empfang
25.10.2021 10:47 5,5 C 92 % 1024,2 hPa 0,0 l/m 0,0 km/h (0 Bft) O 90 4,3 C 5,5 C 1,6 km/h (1 Bft) 95,65 %
25.10.2021 10:46 5,5 C 92 % 1024,3 hPa 0,0 l/m 0,0 km/h (0 Bft) N 0 4,3 C 5,5 C 0,0 km/h (0 Bft) 95,65 %
25.10.2021 10:45 5,4 C 93 % 1024,3 hPa 0,0 l/m 0,0 km/h (0 Bft) N 0 4,4 C 5,4 C 0,0 km/h (0 Bft) 95,65 %
25.10.2021 10:44 5,4 C 94 % 1024,3 hPa 0,0 l/m 0,0 km/h (0 Bft) N 0 4,5 C 5,4 C 0,0 km/h (0 Bft) 91,30 %
25.10.2021 10:43 5,2 C 94 % 1024,3 hPa 0,0 l/m 0,0 km/h (0 Bft) N 0 4,3 C 5,2 C 0,0 km/h (0 Bft) 95,65 %
25.10.2021 10:42 5,1 C 93 % 1024,3 hPa 0,0 l/m 0,0 km/h (0 Bft) N 0 4,1 C 5,1 C 0,0 km/h (0 Bft) 95,65 %
25.10.2021 10:41 4,9 C 93 % 1024,3 hPa 0,0 l/m 0,0 km/h (0 Bft) O 90 3,9 C 4,9 C 1,6 km/h (1 Bft) 95,65 %
25.10.2021 10:40 4,9 C 93 % 1024,3 hPa 0,0 l/m 0,0 km/h (0 Bft) N 0 3,9 C 4,9 C 0,0 km/h (0 Bft) 100,00 %
25.10.2021 10:39 4,7 C 92 % 1024,3 hPa 0,0 l/m 0,0 km/h (0 Bft) N 0 3,5 C 4,7 C 4,8 km/h (1 Bft) 95,65 %
25.10.2021 10:38 4,8 C 92 % 1024,4 hPa 0,0 l/m 0,0 km/h (0 Bft) SO 135 3,6 C 4,8 C 3,2 km/h (1 Bft) 100,00 %
25.10.2021 10:37 4,8 C 92 % 1024,3 hPa 0,0 l/m 1,6 km/h (1 Bft) SO 135 3,6 C 4,8 C 4,8 km/h (1 Bft) 95,65 %
25.10.2021 10:36 4,8 C 93 % 1024,4 hPa 0,0 l/m 1,6 km/h (1 Bft) SO 135 3,8 C 4,8 C 3,2 km/h (1 Bft) 95,65 %
25.10.2021 10:35 4,8 C 93 % 1024,4 hPa 0,0 l/m 1,6 km/h (1 Bft) SO 135 3,8 C 4,8 C 3,2 km/h (1 Bft) 100,00 %
25.10.2021 10:34 4,7 C 92 % 1024,4 hPa 0,0 l/m 0,0 km/h (0 Bft) SO 135 3,5 C 4,7 C 1,6 km/h (1 Bft) 95,65 %
25.10.2021 10:33 4,8 C 93 % 1024,4 hPa 0,0 l/m 1,6 km/h (1 Bft) SO 135 3,8 C 4,8 C 3,2 km/h (1 Bft) 95,65 %
25.10.2021 10:32 4,8 C 93 % 1024,3 hPa 0,0 l/m 0,0 km/h (0 Bft) N 0 3,8 C 4,8 C 0,0 km/h (0 Bft) 95,65 %
25.10.2021 10:31 4,7 C 93 % 1024,4 hPa 0,0 l/m 0,0 km/h (0 Bft) N 0 3,7 C 4,7 C 0,0 km/h (0 Bft) 91,30 %
25.10.2021 10:30 4,7 C 93 % 1024,4 hPa 0,0 l/m 0,0 km/h (0 Bft) N 0 3,7 C 4,7 C 0,0 km/h (0 Bft) 100,00 %
25.10.2021 10:29 4,7 C 93 % 1024,4 hPa 0,0 l/m 0,0 km/h (0 Bft) N 0 3,7 C 4,7 C 0,0 km/h (0 Bft) 95,65 %
25.10.2021 10:28 4,7 C 94 % 1024,4 hPa 0,0 l/m 0,0 km/h (0 Bft) N 0 3,8 C 4,7 C 0,0 km/h (0 Bft) 100,00 %
25.10.2021 10:27 4,7 C 94 % 1024,4 hPa 0,0 l/m 0,0 km/h (0 Bft) N 0 3,8 C 4,7 C 0,0 km/h (0 Bft) 91,30 %
25.10.2021 10:26 4,7 C 94 % 1024,4 hPa 0,0 l/m 0,0 km/h (0 Bft) N 0 3,8 C 4,7 C 0,0 km/h (0 Bft) 95,65 %
25.10.2021 10:25 4,7 C 94 % 1024,4 hPa 0,0 l/m 0,0 km/h (0 Bft) N 0 3,8 C 4,7 C 0,0 km/h (0 Bft) 91,30 %
25.10.2021 10:24 4,6 C 94 % 1024,4 hPa 0,0 l/m 0,0 km/h (0 Bft) N 0 3,7 C 4,6 C 0,0 km/h (0 Bft) 95,65 %
25.10.2021 10:23 4,7 C 94 % 1024,3 hPa 0,0 l/m 0,0 km/h (0 Bft) N 0 3,8 C 4,7 C 0,0 km/h (0 Bft) 100,00 %
25.10.2021 10:22 4,6 C 94 % 1024,4 hPa 0,0 l/m 0,0 km/h (0 Bft) N 0 3,7 C 4,6 C 0,0 km/h (0 Bft) 95,65 %
25.10.2021 10:21 4,5 C 94 % 1024,3 hPa 0,0 l/m 0,0 km/h (0 Bft) N 0 3,6 C 4,5 C 0,0 km/h (0 Bft) 100,00 %
25.10.2021 10:20 4,5 C 94 % 1024,3 hPa 0,0 l/m 0,0 km/h (0 Bft) N 0 3,6 C 4,5 C 0,0 km/h (0 Bft) 91,30 %
25.10.2021 10:19 4,5 C 94 % 1024,4 hPa 0,0 l/m 0,0 km/h (0 Bft) N 0 3,6 C 4,5 C 0,0 km/h (0 Bft) 95,65 %
25.10.2021 10:18 4,6 C 95 % 1024,4 hPa 0,0 l/m 0,0 km/h (0 Bft) N 0 3,9 C 4,6 C 0,0 km/h (0 Bft) 100,00 %
25.10.2021 10:17 4,6 C 95 % 1024,4 hPa 0,0 l/m 0,0 km/h (0 Bft) N 0 3,9 C 4,6 C 0,0 km/h (0 Bft) 91,30 %
25.10.2021 10:16 4,6 C 95 % 1024,4 hPa 0,0 l/m 0,0 km/h (0 Bft) N 0 3,9 C 4,6 C 0,0 km/h (0 Bft) 100,00 %
25.10.2021 10:15 4,6 C 96 % 1024,3 hPa 0,0 l/m 0,0 km/h (0 Bft) N 0 4,0 C 4,6 C 0,0 km/h (0 Bft) 91,30 %
25.10.2021 10:14 4,6 C 96 % 1024,3 hPa 0,0 l/m 1,6 km/h (1 Bft) O 90 4,0 C 4,6 C 1,6 km/h (1 Bft) 100,00 %
25.10.2021 10:13 4,6 C 96 % 1024,3 hPa 0,0 l/m 0,0 km/h (0 Bft) N 0 4,0 C 4,6 C 0,0 km/h (0 Bft) 91,30 %
25.10.2021 10:12 4,4 C 96 % 1024,3 hPa 0,0 l/m 0,0 km/h (0 Bft) N 0 3,8 C 4,4 C 0,0 km/h (0 Bft) 95,65 %
25.10.2021 10:11 4,4 C 96 % 1024,3 hPa 0,0 l/m 0,0 km/h (0 Bft) SO 135 3,8 C 4,4 C 3,2 km/h (1 Bft) 100,00 %
25.10.2021 10:10 4,3 C 96 % 1024,3 hPa 0,0 l/m 1,6 km/h (1 Bft) SO 135 3,7 C 4,3 C 3,2 km/h (1 Bft) 91,30 %
25.10.2021 10:09 4,3 C 97 % 1024,3 hPa 0,0 l/m 0,0 km/h (0 Bft) N 0 3,9 C 4,3 C 0,0 km/h (0 Bft) 100,00 %
25.10.2021 10:08 4,3 C 97 % 1024,3 hPa 0,0 l/m 0,0 km/h (0 Bft) N 0 3,9 C 4,3 C 0,0 km/h (0 Bft) 95,65 %
25.10.2021 10:07 4,3 C 97 % 1024,3 hPa 0,0 l/m 0,0 km/h (0 Bft) N 0 3,9 C 4,3 C 0,0 km/h (0 Bft) 95,65 %
25.10.2021 10:06 4,3 C 97 % 1024,2 hPa 0,0 l/m 0,0 km/h (0 Bft) N 0 3,9 C 4,3 C 0,0 km/h (0 Bft) 95,65 %
25.10.2021 10:05 4,2 C 97 % 1024,2 hPa 0,0 l/m 0,0 km/h (0 Bft) N 0 3,8 C 4,2 C 0,0 km/h (0 Bft) 95,65 %
25.10.2021 10:04 4,2 C 97 % 1024,3 hPa 0,0 l/m 0,0 km/h (0 Bft) N 0 3,8 C 4,2 C 0,0 km/h (0 Bft) 95,65 %
25.10.2021 10:03 4,1 C 97 % 1024,2 hPa 0,0 l/m 0,0 km/h (0 Bft) N 0 3,7 C 4,1 C 0,0 km/h (0 Bft) 95,65 %
25.10.2021 10:02 4,1 C 97 % 1024,2 hPa 0,0 l/m 0,0 km/h (0 Bft) N 0 3,7 C 4,1 C 0,0 km/h (0 Bft) 95,65 %
25.10.2021 10:01 4,0 C 97 % 1024,2 hPa 0,0 l/m 0,0 km/h (0 Bft) N 0 3,6 C 4,0 C 0,0 km/h (0 Bft) 95,65 %
25.10.2021 10:00 3,9 C 97 % 1024,2 hPa 0,0 l/m 0,0 km/h (0 Bft) N 0 3,5 C 3,9 C 0,0 km/h (0 Bft) 95,65 %
25.10.2021 09:59 3,9 C 97 % 1024,2 hPa 0,0 l/m 0,0 km/h (0 Bft) N 0 3,5 C 3,9 C 0,0 km/h (0 Bft) 95,65 %
25.10.2021 09:58 3,9 C 97 % 1024,2 hPa 0,0 l/m 0,0 km/h (0 Bft) N 0 3,5 C 3,9 C 0,0 km/h (0 Bft) 95,65 %
25.10.2021 09:57 3,8 C 97 % 1024,2 hPa 0,0 l/m 0,0 km/h (0 Bft) N 0 3,4 C 3,8 C 0,0 km/h (0 Bft) 95,65 %
25.10.2021 09:56 3,7 C 97 % 1024,2 hPa 0,0 l/m 0,0 km/h (0 Bft) N 0 3,3 C 3,7 C 0,0 km/h (0 Bft) 91,30 %
25.10.2021 09:55 3,6 C 97 % 1024,2 hPa 0,0 l/m 1,6 km/h (1 Bft) SO 135 3,2 C 3,6 C 1,6 km/h (1 Bft) 91,30 %
25.10.2021 09:54 3,6 C 97 % 1024,3 hPa 0,0 l/m 3,2 km/h (1 Bft) NO 45 3,2 C 3,6 C 3,2 km/h (1 Bft) 95,65 %
25.10.2021 09:53 3,6 C 97 % 1024,2 hPa 0,0 l/m 0,0 km/h (0 Bft) NO 45 3,2 C 3,6 C 1,6 km/h (1 Bft) 100,00 %
25.10.2021 09:52 3,3 C 97 % 1024,1 hPa 0,0 l/m 0,0 km/h (0 Bft) N 0 2,9 C 3,3 C 0,0 km/h (0 Bft) 95,65 %
25.10.2021 09:51 3,2 C 97 % 1024,2 hPa 0,0 l/m 0,0 km/h (0 Bft) N 0 2,8 C 3,2 C 0,0 km/h (0 Bft) 100,00 %
25.10.2021 09:50 3,1 C 97 % 1024,2 hPa 0,0 l/m 0,0 km/h (0 Bft) N 0 2,7 C 3,1 C 0,0 km/h (0 Bft) 95,65 %
25.10.2021 09:49 2,9 C 97 % 1024,2 hPa 0,0 l/m 0,0 km/h (0 Bft) N 0 2,5 C 2,9 C 0,0 km/h (0 Bft) 100,00 %
25.10.2021 09:48 2,9 C 97 % 1024,2 hPa 0,0 l/m 0,0 km/h (0 Bft) N 0 2,5 C 2,9 C 0,0 km/h (0 Bft) 91,30 %
25.10.2021 09:47 2,8 C 97 % 1024,2 hPa 0,0 l/m 0,0 km/h (0 Bft) N 0 2,4 C 2,8 C 0,0 km/h (0 Bft) 100,00 %
25.10.2021 09:46 2,8 C 97 % 1024,2 hPa 0,0 l/m 0,0 km/h (0 Bft) N 0 2,4 C 2,8 C 0,0 km/h (0 Bft) 91,30 %
25.10.2021 09:45 2,8 C 97 % 1024,3 hPa 0,0 l/m 0,0 km/h (0 Bft) N 0 2,4 C 2,8 C 0,0 km/h (0 Bft) 95,65 %
25.10.2021 09:44 2,7 C 97 % 1024,4 hPa 0,0 l/m 0,0 km/h (0 Bft) SW 225 2,3 C 2,7 C 1,6 km/h (1 Bft) 95,65 %
25.10.2021 09:43 2,7 C 97 % 1024,3 hPa 0,0 l/m 0,0 km/h (0 Bft) N 0 2,3 C 2,7 C 0,0 km/h (0 Bft) 91,30 %
25.10.2021 09:42 2,7 C 97 % 1024,3 hPa 0,0 l/m 0,0 km/h (0 Bft) N 0 2,3 C 2,7 C 0,0 km/h (0 Bft) 100,00 %
25.10.2021 09:41 2,6 C 97 % 1024,4 hPa 0,0 l/m 0,0 km/h (0 Bft) S-SW 202 2,2 C 2,6 C 1,6 km/h (1 Bft) 95,65 %
25.10.2021 09:40 2,6 C 97 % 1024,4 hPa 0,0 l/m 0,0 km/h (0 Bft) S-SW 202 2,2 C 2,6 C 1,6 km/h (1 Bft) 100,00 %
25.10.2021 09:39 2,6 C 97 % 1024,3 hPa 0,0 l/m 1,6 km/h (1 Bft) SW 225 2,2 C 2,6 C 3,2 km/h (1 Bft) 91,30 %
25.10.2021 09:38 2,6 C 97 % 1024,4 hPa 0,0 l/m 1,6 km/h (1 Bft) SW 225 2,2 C 2,6 C 3,2 km/h (1 Bft) 95,65 %
25.10.2021 09:37 2,6 C 97 % 1024,4 hPa 0,0 l/m 0,0 km/h (0 Bft) N 0 2,2 C 2,6 C 0,0 km/h (0 Bft) 95,65 %
25.10.2021 09:36 2,5 C 96 % 1024,4 hPa 0,0 l/m 0,0 km/h (0 Bft) N 0 1,9 C 2,5 C 0,0 km/h (0 Bft) 91,30 %
25.10.2021 09:35 2,4 C 96 % 1024,4 hPa 0,0 l/m 0,0 km/h (0 Bft) N 0 1,8 C 2,4 C 0,0 km/h (0 Bft) 100,00 %
25.10.2021 09:34 2,4 C 96 % 1024,5 hPa 0,0 l/m 0,0 km/h (0 Bft) N 0 1,8 C 2,4 C 0,0 km/h (0 Bft) 91,30 %
25.10.2021 09:33 2,4 C 96 % 1024,4 hPa 0,0 l/m 0,0 km/h (0 Bft) N 0 1,8 C 2,4 C 0,0 km/h (0 Bft) 95,65 %
25.10.2021 09:32 2,4 C 96 % 1024,4 hPa 0,0 l/m 0,0 km/h (0 Bft) N 0 1,8 C 2,4 C 0,0 km/h (0 Bft) 100,00 %
25.10.2021 09:31 2,4 C 97 % 1024,4 hPa 0,0 l/m 0,0 km/h (0 Bft) N 0 2,0 C 2,4 C 0,0 km/h (0 Bft) 91,30 %
25.10.2021 09:30 2,4 C 97 % 1024,4 hPa 0,0 l/m 0,0 km/h (0 Bft) N 0 2,0 C 2,4 C 0,0 km/h (0 Bft) 95,65 %
25.10.2021 09:29 2,4 C 97 % 1024,4 hPa 0,0 l/m 0,0 km/h (0 Bft) N 0 2,0 C 2,4 C 0,0 km/h (0 Bft) 100,00 %
25.10.2021 09:28 2,4 C 97 % 1024,4 hPa 0,0 l/m 0,0 km/h (0 Bft) N 0 2,0 C 2,4 C 0,0 km/h (0 Bft) 100,00 %
25.10.2021 09:27 2,4 C 97 % 1024,4 hPa 0,0 l/m 0,0 km/h (0 Bft) N 0 2,0 C 2,4 C 0,0 km/h (0 Bft) 95,65 %
25.10.2021 09:26 2,4 C 97 % 1024,4 hPa 0,0 l/m 0,0 km/h (0 Bft) N 0 2,0 C 2,4 C 0,0 km/h (0 Bft) 95,65 %
25.10.2021 09:25 2,4 C 96 % 1024,4 hPa 0,0 l/m 0,0 km/h (0 Bft) N 0 1,8 C 2,4 C 0,0 km/h (0 Bft) 100,00 %
25.10.2021 09:24 2,3 C 96 % 1024,4 hPa 0,0 l/m 0,0 km/h (0 Bft) N 0 1,7 C 2,3 C 0,0 km/h (0 Bft) 91,30 %
25.10.2021 09:23 2,3 C 96 % 1024,3 hPa 0,0 l/m 0,0 km/h (0 Bft) N 0 1,7 C 2,3 C 0,0 km/h (0 Bft) 95,65 %
25.10.2021 09:22 2,3 C 96 % 1024,4 hPa 0,0 l/m 0,0 km/h (0 Bft) N 0 1,7 C 2,3 C 0,0 km/h (0 Bft) 91,30 %
25.10.2021 09:21 2,2 C 96 % 1024,4 hPa 0,0 l/m 0,0 km/h (0 Bft) N 0 1,6 C 2,2 C 0,0 km/h (0 Bft) 91,30 %
25.10.2021 09:20 2,2 C 96 % 1024,4 hPa 0,0 l/m 0,0 km/h (0 Bft) N 0 1,6 C 2,2 C 0,0 km/h (0 Bft) 100,00 %
25.10.2021 09:19 2,3 C 96 % 1024,3 hPa 0,0 l/m 0,0 km/h (0 Bft) N 0 1,7 C 2,3 C 0,0 km/h (0 Bft) 91,30 %
25.10.2021 09:18 2,3 C 96 % 1024,4 hPa 0,0 l/m 0,0 km/h (0 Bft) N 0 1,7 C 2,3 C 0,0 km/h (0 Bft) 91,30 %
25.10.2021 09:17 2,2 C 96 % 1024,3 hPa 0,0 l/m 0,0 km/h (0 Bft) N 0 1,6 C 2,2 C 0,0 km/h (0 Bft) 95,65 %
25.10.2021 09:16 2,2 C 96 % 1024,4 hPa 0,0 l/m 0,0 km/h (0 Bft) N 0 1,6 C 2,2 C 0,0 km/h (0 Bft) 100,00 %
25.10.2021 09:15 2,2 C 96 % 1024,4 hPa 0,0 l/m 0,0 km/h (0 Bft) N 0 1,6 C 2,2 C 0,0 km/h (0 Bft) 95,65 %
25.10.2021 09:14 2,2 C 96 % 1024,4 hPa 0,0 l/m 0,0 km/h (0 Bft) N 0 1,6 C 2,2 C 0,0 km/h (0 Bft) 95,65 %
25.10.2021 09:13 2,1 C 96 % 1024,4 hPa 0,0 l/m 0,0 km/h (0 Bft) N 0 1,5 C 2,1 C 0,0 km/h (0 Bft) 100,00 %
25.10.2021 09:12 2,1 C 96 % 1024,3 hPa 0,0 l/m 0,0 km/h (0 Bft) N 0 1,5 C 2,1 C 0,0 km/h (0 Bft) 91,30 %
25.10.2021 09:11 2,2 C 96 % 1024,4 hPa 0,0 l/m 0,0 km/h (0 Bft) N 0 1,6 C 2,2 C 0,0 km/h (0 Bft) 95,65 %
25.10.2021 09:10 2,1 C 96 % 1024,4 hPa 0,0 l/m 0,0 km/h (0 Bft) N 0 1,5 C 2,1 C 0,0 km/h (0 Bft) 95,65 %
25.10.2021 09:09 2,1 C 96 % 1024,3 hPa 0,0 l/m 0,0 km/h (0 Bft) N 0 1,5 C 2,1 C 0,0 km/h (0 Bft) 95,65 %
25.10.2021 09:08 2,1 C 96 % 1024,4 hPa 0,0 l/m 0,0 km/h (0 Bft) N 0 1,5 C 2,1 C 0,0 km/h (0 Bft) 100,00 %
25.10.2021 09:07 2,1 C 96 % 1024,3 hPa 0,0 l/m 0,0 km/h (0 Bft) N 0 1,5 C 2,1 C 0,0 km/h (0 Bft) 91,30 %
25.10.2021 09:06 2,1 C 96 % 1024,3 hPa 0,0 l/m 0,0 km/h (0 Bft) N 0 1,5 C 2,1 C 0,0 km/h (0 Bft) 95,65 %
25.10.2021 09:05 2,1 C 96 % 1024,3 hPa 0,0 l/m 0,0 km/h (0 Bft) N 0 1,5 C 2,1 C 0,0 km/h (0 Bft) 95,65 %
25.10.2021 09:04 2,1 C 96 % 1024,3 hPa 0,0 l/m 0,0 km/h (0 Bft) N 0 1,5 C 2,1 C 0,0 km/h (0 Bft) 100,00 %
25.10.2021 09:03 2,1 C 96 % 1024,3 hPa 0,2 l/m 0,0 km/h (0 Bft) N 0 1,5 C 2,1 C 0,0 km/h (0 Bft) 91,30 %
25.10.2021 09:02 2,1 C 96 % 1024,3 hPa 0,0 l/m 0,0 km/h (0 Bft) N 0 1,5 C 2,1 C 0,0 km/h (0 Bft) 91,30 %
25.10.2021 09:01 2,1 C 96 % 1024,3 hPa 0,0 l/m 0,0 km/h (0 Bft) N 0 1,5 C 2,1 C 0,0 km/h (0 Bft) 95,65 %
25.10.2021 09:00 2,1 C 96 % 1024,3 hPa 0,0 l/m 0,0 km/h (0 Bft) N 0 1,5 C 2,1 C 0,0 km/h (0 Bft) 91,30 %
25.10.2021 08:59 2,1 C 96 % 1024,3 hPa 0,0 l/m 0,0 km/h (0 Bft) N 0 1,5 C 2,1 C 0,0 km/h (0 Bft) 100,00 %
25.10.2021 08:58 2,0 C 96 % 1024,3 hPa 0,0 l/m 0,0 km/h (0 Bft) N 0 1,4 C 2,0 C 0,0 km/h (0 Bft) 100,00 %
25.10.2021 08:57 2,0 C 96 % 1024,3 hPa 0,0 l/m 0,0 km/h (0 Bft) N 0 1,4 C 2,0 C 0,0 km/h (0 Bft) 95,65 %
25.10.2021 08:56 2,0 C 96 % 1024,2 hPa 0,0 l/m 0,0 km/h (0 Bft) N 0 1,4 C 2,0 C 0,0 km/h (0 Bft) 100,00 %
25.10.2021 08:55 2,0 C 96 % 1024,2 hPa 0,0 l/m 0,0 km/h (0 Bft) N 0 1,4 C 2,0 C 0,0 km/h (0 Bft) 100,00 %
25.10.2021 08:54 2,1 C 96 % 1024,2 hPa 0,0 l/m 0,0 km/h (0 Bft) N 0 1,5 C 2,1 C 0,0 km/h (0 Bft) 100,00 %
25.10.2021 08:53 2,1 C 96 % 1024,3 hPa 0,0 l/m 0,0 km/h (0 Bft) N 0 1,5 C 2,1 C 0,0 km/h (0 Bft) 95,65 %
25.10.2021 08:52 2,1 C 96 % 1024,2 hPa 0,0 l/m 0,0 km/h (0 Bft) N 0 1,5 C 2,1 C 0,0 km/h (0 Bft) 100,00 %
25.10.2021 08:51 2,1 C 96 % 1024,2 hPa 0,0 l/m 0,0 km/h (0 Bft) N 0 1,5 C 2,1 C 0,0 km/h (0 Bft) 91,30 %
25.10.2021 08:50 2,1 C 96 % 1024,3 hPa 0,0 l/m 0,0 km/h (0 Bft) N 0 1,5 C 2,1 C 0,0 km/h (0 Bft) 91,30 %
25.10.2021 08:49 2,1 C 96 % 1024,3 hPa 0,0 l/m 0,0 km/h (0 Bft) N 0 1,5 C 2,1 C 0,0 km/h (0 Bft) 95,65 %
25.10.2021 08:48 2,1 C 96 % 1024,1 hPa 0,0 l/m 0,0 km/h (0 Bft) N 0 1,5 C 2,1 C 0,0 km/h (0 Bft) 100,00 %
25.10.2021 08:47 2,1 C 96 % 1024,1 hPa 0,0 l/m 0,0 km/h (0 Bft) N 0 1,5 C 2,1 C 0,0 km/h (0 Bft) 95,65 %
25.10.2021 08:46 2,1 C 96 % 1024,2 hPa 0,0 l/m 0,0 km/h (0 Bft) N 0 1,5 C 2,1 C 0,0 km/h (0 Bft) 95,65 %
25.10.2021 08:45 2,1 C 96 % 1024,1 hPa 0,0 l/m 0,0 km/h (0 Bft) N 0 1,5 C 2,1 C 0,0 km/h (0 Bft) 100,00 %
25.10.2021 08:44 2,1 C 96 % 1024,1 hPa 0,0 l/m 0,0 km/h (0 Bft) N 0 1,5 C 2,1 C 0,0 km/h (0 Bft) 100,00 %
25.10.2021 08:43 2,1 C 96 % 1024,2 hPa 0,0 l/m 0,0 km/h (0 Bft) N 0 1,5 C 2,1 C 0,0 km/h (0 Bft) 91,30 %
25.10.2021 08:42 2,1 C 96 % 1024,1 hPa 0,0 l/m 0,0 km/h (0 Bft) N 0 1,5 C 2,1 C 0,0 km/h (0 Bft) 100,00 %
25.10.2021 08:41 2,2 C 96 % 1024,1 hPa 0,0 l/m 0,0 km/h (0 Bft) N 0 1,6 C 2,2 C 0,0 km/h (0 Bft) 95,65 %
25.10.2021 08:40 2,2 C 96 % 1024,1 hPa 0,0 l/m 0,0 km/h (0 Bft) N 0 1,6 C 2,2 C 0,0 km/h (0 Bft) 100,00 %
25.10.2021 08:39 2,2 C 96 % 1024,1 hPa 0,0 l/m 0,0 km/h (0 Bft) N 0 1,6 C 2,2 C 0,0 km/h (0 Bft) 100,00 %
25.10.2021 08:38 2,3 C 96 % 1024,1 hPa 0,0 l/m 0,0 km/h (0 Bft) N 0 1,7 C 2,3 C 0,0 km/h (0 Bft) 95,65 %
25.10.2021 08:37 2,3 C 96 % 1024,2 hPa 0,0 l/m 0,0 km/h (0 Bft) N 0 1,7 C 2,3 C 0,0 km/h (0 Bft) 95,65 %
25.10.2021 08:36 2,3 C 96 % 1024,1 hPa 0,0 l/m 0,0 km/h (0 Bft) N 0 1,7 C 2,3 C 0,0 km/h (0 Bft) 95,65 %
25.10.2021 08:35 2,4 C 96 % 1024,2 hPa 0,0 l/m 0,0 km/h (0 Bft) N 0 1,8 C 2,4 C 0,0 km/h (0 Bft) 95,65 %
25.10.2021 08:34 2,4 C 96 % 1024,1 hPa 0,0 l/m 0,0 km/h (0 Bft) N 0 1,8 C 2,4 C 0,0 km/h (0 Bft) 100,00 %
25.10.2021 08:33 2,4 C 96 % 1024,1 hPa 0,0 l/m 0,0 km/h (0 Bft) N 0 1,8 C 2,4 C 0,0 km/h (0 Bft) 91,30 %
25.10.2021 08:32 2,4 C 96 % 1024,2 hPa 0,0 l/m 0,0 km/h (0 Bft) N 0 1,8 C 2,4 C 0,0 km/h (0 Bft) 100,00 %
25.10.2021 08:31 2,4 C 96 % 1024,1 hPa 0,0 l/m 0,0 km/h (0 Bft) N 0 1,8 C 2,4 C 0,0 km/h (0 Bft) 95,65 %
25.10.2021 08:30 2,4 C 96 % 1024,1 hPa 0,0 l/m 0,0 km/h (0 Bft) N 0 1,8 C 2,4 C 0,0 km/h (0 Bft) 95,65 %
25.10.2021 08:29 2,3 C 96 % 1024,2 hPa 0,0 l/m 0,0 km/h (0 Bft) N 0 1,7 C 2,3 C 0,0 km/h (0 Bft) 95,65 %
25.10.2021 08:28 2,3 C 96 % 1024,1 hPa 0,0 l/m 0,0 km/h (0 Bft) N 0 1,7 C 2,3 C 0,0 km/h (0 Bft) 95,65 %
25.10.2021 08:27 2,3 C 96 % 1024,1 hPa 0,0 l/m 0,0 km/h (0 Bft) N 0 1,7 C 2,3 C 0,0 km/h (0 Bft) 100,00 %
25.10.2021 08:26 2,3 C 96 % 1024,1 hPa 0,0 l/m 0,0 km/h (0 Bft) N 0 1,7 C 2,3 C 0,0 km/h (0 Bft) 91,30 %
25.10.2021 08:25 2,3 C 96 % 1024,1 hPa 0,0 l/m 0,0 km/h (0 Bft) N 0 1,7 C 2,3 C 0,0 km/h (0 Bft) 95,65 %
25.10.2021 08:24 2,3 C 97 % 1024,1 hPa 0,0 l/m 0,0 km/h (0 Bft) N 0 1,9 C 2,3 C 0,0 km/h (0 Bft) 95,65 %
25.10.2021 08:23 2,3 C 97 % 1024,1 hPa 0,0 l/m 0,0 km/h (0 Bft) N 0 1,9 C 2,3 C 0,0 km/h (0 Bft) 100,00 %
25.10.2021 08:22 2,4 C 97 % 1024,1 hPa 0,0 l/m 0,0 km/h (0 Bft) N 0 2,0 C 2,4 C 0,0 km/h (0 Bft) 91,30 %
25.10.2021 08:21 2,4 C 97 % 1024,0 hPa 0,0 l/m 0,0 km/h (0 Bft) N 0 2,0 C 2,4 C 0,0 km/h (0 Bft) 91,30 %
25.10.2021 08:20 2,4 C 97 % 1024,0 hPa 0,0 l/m 0,0 km/h (0 Bft) N 0 2,0 C 2,4 C 0,0 km/h (0 Bft) 100,00 %
25.10.2021 08:19 2,4 C 97 % 1024,1 hPa 0,0 l/m 0,0 km/h (0 Bft) N 0 2,0 C 2,4 C 0,0 km/h (0 Bft) 91,30 %
25.10.2021 08:18 2,4 C 97 % 1024,0 hPa 0,0 l/m 0,0 km/h (0 Bft) N 0 2,0 C 2,4 C 0,0 km/h (0 Bft) 95,65 %
25.10.2021 08:17 2,5 C 97 % 1024,0 hPa 0,0 l/m 0,0 km/h (0 Bft) N 0 2,1 C 2,5 C 0,0 km/h (0 Bft) 91,30 %
25.10.2021 08:16 2,6 C 97 % 1024,0 hPa 0,0 l/m 0,0 km/h (0 Bft) N 0 2,2 C 2,6 C 0,0 km/h (0 Bft) 95,65 %
25.10.2021 08:15 2,6 C 97 % 1024,0 hPa 0,0 l/m 0,0 km/h (0 Bft) N 0 2,2 C 2,6 C 0,0 km/h (0 Bft) 95,65 %
25.10.2021 08:14 2,6 C 97 % 1024,0 hPa 0,0 l/m 0,0 km/h (0 Bft) N 0 2,2 C 2,6 C 0,0 km/h (0 Bft) 95,65 %
25.10.2021 08:13 2,6 C 98 % 1024,0 hPa 0,0 l/m 0,0 km/h (0 Bft) N 0 2,3 C 2,6 C 0,0 km/h (0 Bft) 95,65 %
25.10.2021 08:12 2,7 C 97 % 1024,1 hPa 0,0 l/m 0,0 km/h (0 Bft) N 0 2,3 C 2,7 C 0,0 km/h (0 Bft) 95,65 %
25.10.2021 08:11 2,7 C 98 % 1024,0 hPa 0,0 l/m 0,0 km/h (0 Bft) N 0 2,4 C 2,7 C 0,0 km/h (0 Bft) 95,65 %
25.10.2021 08:10 2,7 C 97 % 1024,0 hPa 0,0 l/m 0,0 km/h (0 Bft) N 0 2,3 C 2,7 C 0,0 km/h (0 Bft) 91,30 %
25.10.2021 08:09 2,6 C 97 % 1024,0 hPa 0,0 l/m 0,0 km/h (0 Bft) N 0 2,2 C 2,6 C 0,0 km/h (0 Bft) 91,30 %
25.10.2021 08:08 2,6 C 97 % 1024,0 hPa 0,0 l/m 0,0 km/h (0 Bft) N 0 2,2 C 2,6 C 0,0 km/h (0 Bft) 95,65 %
25.10.2021 08:07 2,5 C 97 % 1024,0 hPa 0,0 l/m 0,0 km/h (0 Bft) N 0 2,1 C 2,5 C 0,0 km/h (0 Bft) 95,65 %
25.10.2021 08:06 2,4 C 97 % 1024,1 hPa 0,0 l/m 0,0 km/h (0 Bft) N 0 2,0 C 2,4 C 0,0 km/h (0 Bft) 100,00 %
25.10.2021 08:05 2,4 C 97 % 1024,1 hPa 0,0 l/m 0,0 km/h (0 Bft) N 0 2,0 C 2,4 C 0,0 km/h (0 Bft) 100,00 %
25.10.2021 08:04 2,3 C 97 % 1024,1 hPa 0,0 l/m 0,0 km/h (0 Bft) N 0 1,9 C 2,3 C 0,0 km/h (0 Bft) 100,00 %
25.10.2021 08:03 2,2 C 97 % 1024,1 hPa 0,0 l/m 0,0 km/h (0 Bft) N 0 1,8 C 2,2 C 0,0 km/h (0 Bft) 100,00 %
25.10.2021 08:02 2,1 C 97 % 1024,0 hPa 0,0 l/m 0,0 km/h (0 Bft) N 0 1,7 C 2,1 C 0,0 km/h (0 Bft) 91,30 %
25.10.2021 08:01 2,0 C 97 % 1024,0 hPa 0,0 l/m 0,0 km/h (0 Bft) N 0 1,6 C 2,0 C 0,0 km/h (0 Bft) 100,00 %
25.10.2021 08:00 1,9 C 97 % 1023,9 hPa 0,0 l/m 0,0 km/h (0 Bft) N 0 1,5 C 1,9 C 0,0 km/h (0 Bft) 91,30 %
25.10.2021 07:59 1,9 C 97 % 1024,1 hPa 0,0 l/m 0,0 km/h (0 Bft) N 0 1,5 C 1,9 C 0,0 km/h (0 Bft) 100,00 %
25.10.2021 07:58 1,8 C 97 % 1024,0 hPa 0,0 l/m 0,0 km/h (0 Bft) N 0 1,4 C 1,8 C 0,0 km/h (0 Bft) 100,00 %
25.10.2021 07:57 1,7 C 97 % 1024,0 hPa 0,0 l/m 0,0 km/h (0 Bft) N 0 1,3 C 1,7 C 0,0 km/h (0 Bft) 91,30 %
25.10.2021 07:56 1,7 C 97 % 1024,0 hPa 0,0 l/m 0,0 km/h (0 Bft) N 0 1,3 C 1,7 C 0,0 km/h (0 Bft) 91,30 %
25.10.2021 07:55 1,6 C 97 % 1024,0 hPa 0,0 l/m 0,0 km/h (0 Bft) N 0 1,2 C 1,6 C 0,0 km/h (0 Bft) 91,30 %
25.10.2021 07:54 1,6 C 97 % 1024,0 hPa 0,0 l/m 0,0 km/h (0 Bft) N 0 1,2 C 1,6 C 0,0 km/h (0 Bft) 95,65 %
25.10.2021 07:53 1,6 C 97 % 1023,9 hPa 0,0 l/m 0,0 km/h (0 Bft) N 0 1,2 C 1,6 C 0,0 km/h (0 Bft) 95,65 %
25.10.2021 07:52 1,5 C 97 % 1024,0 hPa 0,0 l/m 0,0 km/h (0 Bft) N 0 1,1 C 1,5 C 0,0 km/h (0 Bft) 91,30 %
25.10.2021 07:51 1,4 C 96 % 1023,9 hPa 0,0 l/m 0,0 km/h (0 Bft) N 0 0,8 C 1,4 C 0,0 km/h (0 Bft) 95,65 %
25.10.2021 07:50 1,4 C 96 % 1023,9 hPa 0,0 l/m 0,0 km/h (0 Bft) N 0 0,8 C 1,4 C 0,0 km/h (0 Bft) 100,00 %
25.10.2021 07:49 1,4 C 96 % 1023,9 hPa 0,0 l/m 0,0 km/h (0 Bft) N 0 0,8 C 1,4 C 0,0 km/h (0 Bft) 100,00 %
25.10.2021 07:48 1,4 C 97 % 1024,0 hPa 0,0 l/m 0,0 km/h (0 Bft) N 0 1,0 C 1,4 C 0,0 km/h (0 Bft) 91,30 %
25.10.2021 07:47 1,4 C 97 % 1023,9 hPa 0,0 l/m 0,0 km/h (0 Bft) N 0 1,0 C 1,4 C 0,0 km/h (0 Bft) 91,30 %
25.10.2021 07:46 1,5 C 97 % 1023,9 hPa 0,0 l/m 0,0 km/h (0 Bft) N 0 1,1 C 1,5 C 0,0 km/h (0 Bft) 95,65 %
25.10.2021 07:45 1,6 C 97 % 1023,8 hPa 0,0 l/m 0,0 km/h (0 Bft) N 0 1,2 C 1,6 C 0,0 km/h (0 Bft) 91,30 %
25.10.2021 07:44 1,6 C 97 % 1023,9 hPa 0,0 l/m 0,0 km/h (0 Bft) N 0 1,2 C 1,6 C 0,0 km/h (0 Bft) 100,00 %
25.10.2021 07:43 1,6 C 97 % 1024,0 hPa 0,0 l/m 0,0 km/h (0 Bft) N 0 1,2 C 1,6 C 0,0 km/h (0 Bft) 91,30 %
25.10.2021 07:42 1,7 C 97 % 1024,0 hPa 0,0 l/m 0,0 km/h (0 Bft) N 0 1,3 C 1,7 C 0,0 km/h (0 Bft) 100,00 %
25.10.2021 07:41 1,7 C 97 % 1024,0 hPa 0,0 l/m 0,0 km/h (0 Bft) N 0 1,3 C 1,7 C 0,0 km/h (0 Bft) 100,00 %
25.10.2021 07:40 1,7 C 97 % 1023,8 hPa 0,0 l/m 0,0 km/h (0 Bft) N 0 1,3 C 1,7 C 0,0 km/h (0 Bft) 95,65 %
25.10.2021 07:39 1,7 C 97 % 1023,9 hPa 0,0 l/m 0,0 km/h (0 Bft) N 0 1,3 C 1,7 C 0,0 km/h (0 Bft) 95,65 %
25.10.2021 07:38 1,8 C 97 % 1023,9 hPa 0,0 l/m 0,0 km/h (0 Bft) N 0 1,4 C 1,8 C 0,0 km/h (0 Bft) 91,30 %
25.10.2021 07:37 1,8 C 97 % 1023,8 hPa 0,0 l/m 0,0 km/h (0 Bft) N 0 1,4 C 1,8 C 0,0 km/h (0 Bft) 95,65 %
25.10.2021 07:36 1,8 C 97 % 1023,9 hPa 0,0 l/m 0,0 km/h (0 Bft) N 0 1,4 C 1,8 C 0,0 km/h (0 Bft) 91,30 %
25.10.2021 07:35 1,7 C 97 % 1023,8 hPa 0,0 l/m 0,0 km/h (0 Bft) N 0 1,3 C 1,7 C 0,0 km/h (0 Bft) 100,00 %
25.10.2021 07:34 1,7 C 97 % 1023,8 hPa 0,0 l/m 0,0 km/h (0 Bft) N 0 1,3 C 1,7 C 0,0 km/h (0 Bft) 100,00 %
25.10.2021 07:33 1,7 C 97 % 1023,8 hPa 0,0 l/m 0,0 km/h (0 Bft) N 0 1,3 C 1,7 C 0,0 km/h (0 Bft) 95,65 %
25.10.2021 07:32 1,6 C 97 % 1023,9 hPa 0,0 l/m 0,0 km/h (0 Bft) N 0 1,2 C 1,6 C 0,0 km/h (0 Bft) 95,65 %
25.10.2021 07:31 1,6 C 97 % 1023,8 hPa 0,0 l/m 0,0 km/h (0 Bft) N 0 1,2 C 1,6 C 0,0 km/h (0 Bft) 95,65 %
25.10.2021 07:30 1,5 C 97 % 1023,8 hPa 0,0 l/m 0,0 km/h (0 Bft) N 0 1,1 C 1,5 C 0,0 km/h (0 Bft) 100,00 %
25.10.2021 07:29 1,4 C 97 % 1023,8 hPa 0,0 l/m 0,0 km/h (0 Bft) N 0 1,0 C 1,4 C 0,0 km/h (0 Bft) 95,65 %
25.10.2021 07:28 1,4 C 97 % 1023,8 hPa 0,0 l/m 0,0 km/h (0 Bft) N 0 1,0 C 1,4 C 0,0 km/h (0 Bft) 95,65 %
25.10.2021 07:27 1,4 C 97 % 1023,7 hPa 0,0 l/m 0,0 km/h (0 Bft) N 0 1,0 C 1,4 C 0,0 km/h (0 Bft) 100,00 %
25.10.2021 07:26 1,4 C 97 % 1023,8 hPa 0,0 l/m 0,0 km/h (0 Bft) N 0 1,0 C 1,4 C 0,0 km/h (0 Bft) 100,00 %
25.10.2021 07:25 1,4 C 97 % 1023,7 hPa 0,0 l/m 0,0 km/h (0 Bft) N 0 1,0 C 1,4 C 0,0 km/h (0 Bft) 100,00 %
25.10.2021 07:24 1,4 C 97 % 1023,8 hPa 0,0 l/m 0,0 km/h (0 Bft) N 0 1,0 C 1,4 C 0,0 km/h (0 Bft) 91,30 %
25.10.2021 07:23 1,4 C 97 % 1023,8 hPa 0,0 l/m 0,0 km/h (0 Bft) N 0 1,0 C 1,4 C 0,0 km/h (0 Bft) 91,30 %
25.10.2021 07:22 1,4 C 97 % 1023,8 hPa 0,0 l/m 0,0 km/h (0 Bft) N 0 1,0 C 1,4 C 0,0 km/h (0 Bft) 100,00 %
25.10.2021 07:21 1,3 C 97 % 1023,7 hPa 0,0 l/m 0,0 km/h (0 Bft) N 0 0,9 C 1,3 C 0,0 km/h (0 Bft) 95,65 %
25.10.2021 07:20 1,3 C 97 % 1023,8 hPa 0,0 l/m 0,0 km/h (0 Bft) N 0 0,9 C 1,3 C 0,0 km/h (0 Bft) 95,65 %
25.10.2021 07:19 1,3 C 97 % 1023,8 hPa 0,0 l/m 0,0 km/h (0 Bft) N 0 0,9 C 1,3 C 0,0 km/h (0 Bft) 95,65 %
25.10.2021 07:18 1,3 C 97 % 1023,8 hPa 0,0 l/m 0,0 km/h (0 Bft) N 0 0,9 C 1,3 C 0,0 km/h (0 Bft) 100,00 %
25.10.2021 07:17 1,3 C 96 % 1023,8 hPa 0,0 l/m 0,0 km/h (0 Bft) N 0 0,7 C 1,3 C 0,0 km/h (0 Bft) 100,00 %
25.10.2021 07:16 1,2 C 96 % 1023,9 hPa 0,0 l/m 0,0 km/h (0 Bft) N 0 0,6 C 1,2 C 0,0 km/h (0 Bft) 95,65 %
25.10.2021 07:15 1,2 C 96 % 1023,8 hPa 0,0 l/m 0,0 km/h (0 Bft) N 0 0,6 C 1,2 C 0,0 km/h (0 Bft) 95,65 %
25.10.2021 07:14 1,2 C 96 % 1023,8 hPa 0,0 l/m 0,0 km/h (0 Bft) N 0 0,6 C 1,2 C 0,0 km/h (0 Bft) 91,30 %
25.10.2021 07:13 1,2 C 96 % 1023,9 hPa 0,0 l/m 0,0 km/h (0 Bft) N 0 0,6 C 1,2 C 0,0 km/h (0 Bft) 100,00 %
25.10.2021 07:12 1,2 C 96 % 1024,0 hPa 0,0 l/m 0,0 km/h (0 Bft) N 0 0,6 C 1,2 C 0,0 km/h (0 Bft) 100,00 %
25.10.2021 07:11 1,2 C 96 % 1023,8 hPa 0,0 l/m 0,0 km/h (0 Bft) N 0 0,6 C 1,2 C 0,0 km/h (0 Bft) 91,30 %
25.10.2021 07:10 1,2 C 96 % 1024,0 hPa 0,0 l/m 0,0 km/h (0 Bft) N 0 0,6 C 1,2 C 0,0 km/h (0 Bft) 95,65 %
25.10.2021 07:09 1,2 C 96 % 1023,9 hPa 0,0 l/m 0,0 km/h (0 Bft) N 0 0,6 C 1,2 C 0,0 km/h (0 Bft) 95,65 %
25.10.2021 07:08 1,3 C 96 % 1023,8 hPa 0,0 l/m 0,0 km/h (0 Bft) N 0 0,7 C 1,3 C 0,0 km/h (0 Bft) 100,00 %
25.10.2021 07:07 1,3 C 96 % 1023,9 hPa 0,0 l/m 0,0 km/h (0 Bft) N 0 0,7 C 1,3 C 0,0 km/h (0 Bft) 91,30 %
25.10.2021 07:06 1,3 C 96 % 1023,9 hPa 0,0 l/m 0,0 km/h (0 Bft) N 0 0,7 C 1,3 C 0,0 km/h (0 Bft) 91,30 %
25.10.2021 07:05 1,3 C 96 % 1023,9 hPa 0,0 l/m 0,0 km/h (0 Bft) N 0 0,7 C 1,3 C 0,0 km/h (0 Bft) 100,00 %
25.10.2021 07:04 1,3 C 96 % 1023,9 hPa 0,0 l/m 0,0 km/h (0 Bft) N 0 0,7 C 1,3 C 0,0 km/h (0 Bft) 100,00 %
25.10.2021 07:03 1,3 C 96 % 1023,9 hPa 0,0 l/m 0,0 km/h (0 Bft) N 0 0,7 C 1,3 C 0,0 km/h (0 Bft) 95,65 %
25.10.2021 07:02 1,3 C 96 % 1023,9 hPa 0,0 l/m 0,0 km/h (0 Bft) N 0 0,7 C 1,3 C 0,0 km/h (0 Bft) 95,65 %
25.10.2021 07:01 1,3 C 96 % 1024,0 hPa 0,0 l/m 0,0 km/h (0 Bft) N 0 0,7 C 1,3 C 0,0 km/h (0 Bft) 100,00 %
25.10.2021 07:00 1,3 C 96 % 1023,9 hPa 0,0 l/m 0,0 km/h (0 Bft) N 0 0,7 C 1,3 C 0,0 km/h (0 Bft) 91,30 %
25.10.2021 06:59 1,3 C 96 % 1023,8 hPa 0,0 l/m 0,0 km/h (0 Bft) N 0 0,7 C 1,3 C 0,0 km/h (0 Bft) 95,65 %
25.10.2021 06:58 1,3 C 96 % 1023,9 hPa 0,0 l/m 0,0 km/h (0 Bft) N 0 0,7 C 1,3 C 0,0 km/h (0 Bft) 100,00 %
25.10.2021 06:57 1,3 C 96 % 1023,9 hPa 0,0 l/m 0,0 km/h (0 Bft) N 0 0,7 C 1,3 C 0,0 km/h (0 Bft) 91,30 %
25.10.2021 06:56 1,3 C 96 % 1023,9 hPa 0,0 l/m 0,0 km/h (0 Bft) N 0 0,7 C 1,3 C 0,0 km/h (0 Bft) 95,65 %
25.10.2021 06:55 1,4 C 96 % 1024,0 hPa 0,0 l/m 0,0 km/h (0 Bft) N 0 0,8 C 1,4 C 0,0 km/h (0 Bft) 91,30 %
25.10.2021 06:54 1,4 C 96 % 1023,9 hPa 0,0 l/m 0,0 km/h (0 Bft) N 0 0,8 C 1,4 C 0,0 km/h (0 Bft) 95,65 %
25.10.2021 06:53 1,4 C 96 % 1023,9 hPa 0,0 l/m 0,0 km/h (0 Bft) N 0 0,8 C 1,4 C 0,0 km/h (0 Bft) 100,00 %
25.10.2021 06:52 1,5 C 96 % 1023,9 hPa 0,0 l/m 0,0 km/h (0 Bft) N 0 0,9 C 1,5 C 0,0 km/h (0 Bft) 95,65 %
25.10.2021 06:51 1,5 C 96 % 1023,9 hPa 0,0 l/m 0,0 km/h (0 Bft) N 0 0,9 C 1,5 C 0,0 km/h (0 Bft) 100,00 %
25.10.2021 06:50 1,5 C 96 % 1023,9 hPa 0,0 l/m 0,0 km/h (0 Bft) N 0 0,9 C 1,5 C 0,0 km/h (0 Bft) 91,30 %
25.10.2021 06:49 1,6 C 96 % 1023,8 hPa 0,0 l/m 0,0 km/h (0 Bft) N 0 1,0 C 1,6 C 0,0 km/h (0 Bft) 95,65 %
25.10.2021 06:48 1,6 C 96 % 1023,9 hPa 0,0 l/m 0,0 km/h (0 Bft) N 0 1,0 C 1,6 C 0,0 km/h (0 Bft) 91,30 %
25.10.2021 06:47 1,6 C 96 % 1024,0 hPa 0,0 l/m 0,0 km/h (0 Bft) N 0 1,0 C 1,6 C 0,0 km/h (0 Bft) 100,00 %
25.10.2021 06:46 1,6 C 96 % 1023,9 hPa 0,0 l/m 0,0 km/h (0 Bft) N 0 1,0 C 1,6 C 0,0 km/h (0 Bft) 100,00 %
25.10.2021 06:45 1,6 C 96 % 1023,9 hPa 0,0 l/m 0,0 km/h (0 Bft) N 0 1,0 C 1,6 C 0,0 km/h (0 Bft) 91,30 %
25.10.2021 06:44 1,6 C 96 % 1024,0 hPa 0,0 l/m 0,0 km/h (0 Bft) N 0 1,0 C 1,6 C 0,0 km/h (0 Bft) 95,65 %
25.10.2021 06:43 1,6 C 96 % 1024,0 hPa 0,0 l/m 0,0 km/h (0 Bft) N 0 1,0 C 1,6 C 0,0 km/h (0 Bft) 95,65 %
25.10.2021 06:42 1,6 C 96 % 1024,0 hPa 0,0 l/m 0,0 km/h (0 Bft) N 0 1,0 C 1,6 C 0,0 km/h (0 Bft) 95,65 %
25.10.2021 06:41 1,6 C 96 % 1023,9 hPa 0,0 l/m 0,0 km/h (0 Bft) N 0 1,0 C 1,6 C 0,0 km/h (0 Bft) 95,65 %
25.10.2021 06:40 1,6 C 96 % 1024,0 hPa 0,0 l/m 0,0 km/h (0 Bft) N 0 1,0 C 1,6 C 0,0 km/h (0 Bft) 100,00 %
25.10.2021 06:39 1,6 C 96 % 1024,0 hPa 0,0 l/m 0,0 km/h (0 Bft) N 0 1,0 C 1,6 C 0,0 km/h (0 Bft) 95,65 %
25.10.2021 06:38 1,6 C 96 % 1024,0 hPa 0,0 l/m 0,0 km/h (0 Bft) N 0 1,0 C 1,6 C 0,0 km/h (0 Bft) 95,65 %
25.10.2021 06:37 1,7 C 96 % 1024,1 hPa 0,0 l/m 0,0 km/h (0 Bft) N 0 1,1 C 1,7 C 0,0 km/h (0 Bft) 95,65 %
25.10.2021 06:36 1,7 C 96 % 1024,0 hPa 0,0 l/m 0,0 km/h (0 Bft) N 0 1,1 C 1,7 C 0,0 km/h (0 Bft) 95,65 %
25.10.2021 06:35 1,7 C 96 % 1024,0 hPa 0,0 l/m 0,0 km/h (0 Bft) N 0 1,1 C 1,7 C 0,0 km/h (0 Bft) 91,30 %
25.10.2021 06:34 1,7 C 96 % 1024,0 hPa 0,0 l/m 0,0 km/h (0 Bft) N 0 1,1 C 1,7 C 0,0 km/h (0 Bft) 95,65 %
25.10.2021 06:33 1,6 C 96 % 1024,1 hPa 0,0 l/m 0,0 km/h (0 Bft) N 0 1,0 C 1,6 C 0,0 km/h (0 Bft) 91,30 %
25.10.2021 06:32 1,7 C 96 % 1024,0 hPa 0,0 l/m 0,0 km/h (0 Bft) N 0 1,1 C 1,7 C 0,0 km/h (0 Bft) 95,65 %
25.10.2021 06:31 1,7 C 96 % 1024,0 hPa 0,0 l/m 0,0 km/h (0 Bft) N 0 1,1 C 1,7 C 0,0 km/h (0 Bft) 95,65 %
25.10.2021 06:30 1,7 C 96 % 1024,0 hPa 0,0 l/m 0,0 km/h (0 Bft) N 0 1,1 C 1,7 C 0,0 km/h (0 Bft) 100,00 %
25.10.2021 06:29 1,7 C 96 % 1024,0 hPa 0,0 l/m 0,0 km/h (0 Bft) N 0 1,1 C 1,7 C 0,0 km/h (0 Bft) 95,65 %
25.10.2021 06:28 1,7 C 96 % 1024,1 hPa 0,0 l/m 0,0 km/h (0 Bft) N 0 1,1 C 1,7 C 0,0 km/h (0 Bft) 91,30 %
25.10.2021 06:27 1,7 C 96 % 1024,0 hPa 0,0 l/m 0,0 km/h (0 Bft) N 0 1,1 C 1,7 C 0,0 km/h (0 Bft) 95,65 %
25.10.2021 06:26 1,7 C 96 % 1024,0 hPa 0,0 l/m 0,0 km/h (0 Bft) N 0 1,1 C 1,7 C 0,0 km/h (0 Bft) 95,65 %
25.10.2021 06:25 1,7 C 96 % 1024,1 hPa 0,0 l/m 0,0 km/h (0 Bft) N 0 1,1 C 1,7 C 0,0 km/h (0 Bft) 95,65 %
25.10.2021 06:24 1,7 C 96 % 1024,1 hPa 0,0 l/m 0,0 km/h (0 Bft) N 0 1,1 C 1,7 C 0,0 km/h (0 Bft) 100,00 %
25.10.2021 06:23 1,6 C 96 % 1024,0 hPa 0,0 l/m 0,0 km/h (0 Bft) N 0 1,0 C 1,6 C 0,0 km/h (0 Bft) 95,65 %
25.10.2021 06:22 1,6 C 96 % 1024,0 hPa 0,0 l/m 0,0 km/h (0 Bft) N 0 1,0 C 1,6 C 0,0 km/h (0 Bft) 95,65 %
25.10.2021 06:21 1,6 C 96 % 1024,1 hPa 0,0 l/m 0,0 km/h (0 Bft) N 0 1,0 C 1,6 C 0,0 km/h (0 Bft) 95,65 %
25.10.2021 06:20 1,6 C 96 % 1024,1 hPa 0,0 l/m 0,0 km/h (0 Bft) N 0 1,0 C 1,6 C 0,0 km/h (0 Bft) 100,00 %
25.10.2021 06:19 1,6 C 96 % 1024,1 hPa 0,0 l/m 0,0 km/h (0 Bft) N 0 1,0 C 1,6 C 0,0 km/h (0 Bft) 95,65 %
25.10.2021 06:18 1,6 C 96 % 1024,0 hPa 0,0 l/m 0,0 km/h (0 Bft) N 0 1,0 C 1,6 C 0,0 km/h (0 Bft) 100,00 %
25.10.2021 06:17 1,6 C 96 % 1024,0 hPa 0,0 l/m 0,0 km/h (0 Bft) N 0 1,0 C 1,6 C 0,0 km/h (0 Bft) 100,00 %
25.10.2021 06:16 1,5 C 95 % 1024,0 hPa 0,0 l/m 0,0 km/h (0 Bft) N 0 0,8 C 1,5 C 0,0 km/h (0 Bft) 95,65 %
25.10.2021 06:15 1,4 C 95 % 1024,1 hPa 0,0 l/m 0,0 km/h (0 Bft) N 0 0,7 C 1,4 C 0,0 km/h (0 Bft) 95,65 %
25.10.2021 06:14 1,4 C 95 % 1024,0 hPa 0,0 l/m 0,0 km/h (0 Bft) N 0 0,7 C 1,4 C 0,0 km/h (0 Bft) 91,30 %
25.10.2021 06:13 1,4 C 95 % 1024,1 hPa 0,0 l/m 0,0 km/h (0 Bft) N 0 0,7 C 1,4 C 0,0 km/h (0 Bft) 95,65 %
25.10.2021 06:12 1,4 C 95 % 1024,0 hPa 0,0 l/m 0,0 km/h (0 Bft) N 0 0,7 C 1,4 C 0,0 km/h (0 Bft) 95,65 %
25.10.2021 06:11 1,5 C 95 % 1024,0 hPa 0,0 l/m 0,0 km/h (0 Bft) N 0 0,8 C 1,5 C 0,0 km/h (0 Bft) 95,65 %
25.10.2021 06:10 1,6 C 95 % 1024,1 hPa 0,0 l/m 0,0 km/h (0 Bft) N 0 0,9 C 1,6 C 0,0 km/h (0 Bft) 100,00 %
25.10.2021 06:09 1,6 C 95 % 1024,1 hPa 0,0 l/m 0,0 km/h (0 Bft) N 0 0,9 C 1,6 C 0,0 km/h (0 Bft) 95,65 %
25.10.2021 06:08 1,6 C 95 % 1024,1 hPa 0,0 l/m 0,0 km/h (0 Bft) N 0 0,9 C 1,6 C 0,0 km/h (0 Bft) 100,00 %
25.10.2021 06:07 1,6 C 95 % 1024,1 hPa 0,0 l/m 0,0 km/h (0 Bft) N 0 0,9 C 1,6 C 0,0 km/h (0 Bft) 95,65 %
25.10.2021 06:06 1,7 C 95 % 1024,1 hPa 0,0 l/m 0,0 km/h (0 Bft) N 0 1,0 C 1,7 C 0,0 km/h (0 Bft) 95,65 %
25.10.2021 06:05 1,7 C 95 % 1024,0 hPa 0,0 l/m 0,0 km/h (0 Bft) N 0 1,0 C 1,7 C 0,0 km/h (0 Bft) 100,00 %
25.10.2021 06:04 1,7 C 95 % 1024,1 hPa 0,0 l/m 0,0 km/h (0 Bft) N 0 1,0 C 1,7 C 0,0 km/h (0 Bft) 95,65 %
25.10.2021 06:03 1,7 C 95 % 1024,2 hPa 0,0 l/m 0,0 km/h (0 Bft) N 0 1,0 C 1,7 C 0,0 km/h (0 Bft) 100,00 %
25.10.2021 06:02 1,8 C 95 % 1024,2 hPa 0,0 l/m 0,0 km/h (0 Bft) N 0 1,1 C 1,8 C 0,0 km/h (0 Bft) 100,00 %
25.10.2021 06:01 1,8 C 95 % 1024,2 hPa 0,0 l/m 0,0 km/h (0 Bft) N 0 1,1 C 1,8 C 0,0 km/h (0 Bft) 95,65 %
25.10.2021 06:00 1,8 C 95 % 1024,2 hPa 0,0 l/m 0,0 km/h (0 Bft) N 0 1,1 C 1,8 C 0,0 km/h (0 Bft) 95,65 %
25.10.2021 05:59 1,8 C 95 % 1024,1 hPa 0,0 l/m 0,0 km/h (0 Bft) N 0 1,1 C 1,8 C 0,0 km/h (0 Bft) 95,65 %
25.10.2021 05:58 1,8 C 95 % 1024,1 hPa 0,0 l/m 0,0 km/h (0 Bft) N 0 1,1 C 1,8 C 0,0 km/h (0 Bft) 95,65 %
25.10.2021 05:57 1,9 C 95 % 1024,2 hPa 0,0 l/m 0,0 km/h (0 Bft) N 0 1,2 C 1,9 C 0,0 km/h (0 Bft) 100,00 %
25.10.2021 05:56 1,9 C 95 % 1024,2 hPa 0,0 l/m 0,0 km/h (0 Bft) N 0 1,2 C 1,9 C 0,0 km/h (0 Bft) 91,30 %
25.10.2021 05:55 2,0 C 95 % 1024,2 hPa 0,0 l/m 0,0 km/h (0 Bft) N 0 1,3 C 2,0 C 0,0 km/h (0 Bft) 100,00 %
25.10.2021 05:54 2,1 C 95 % 1024,2 hPa 0,0 l/m 0,0 km/h (0 Bft) N 0 1,4 C 2,1 C 0,0 km/h (0 Bft) 95,65 %
25.10.2021 05:53 2,1 C 96 % 1024,2 hPa 0,0 l/m 0,0 km/h (0 Bft) N 0 1,5 C 2,1 C 0,0 km/h (0 Bft) 100,00 %
25.10.2021 05:52 2,1 C 96 % 1024,2 hPa 0,0 l/m 0,0 km/h (0 Bft) N 0 1,5 C 2,1 C 0,0 km/h (0 Bft) 91,30 %
25.10.2021 05:51 2,1 C 96 % 1024,2 hPa 0,0 l/m 0,0 km/h (0 Bft) N 0 1,5 C 2,1 C 0,0 km/h (0 Bft) 100,00 %
25.10.2021 05:50 2,1 C 96 % 1024,2 hPa 0,0 l/m 0,0 km/h (0 Bft) N 0 1,5 C 2,1 C 0,0 km/h (0 Bft) 91,30 %
25.10.2021 05:49 2,1 C 96 % 1024,3 hPa 0,0 l/m 0,0 km/h (0 Bft) N 0 1,5 C 2,1 C 0,0 km/h (0 Bft) 95,65 %
25.10.2021 05:48 2,0 C 96 % 1024,3 hPa 0,0 l/m 0,0 km/h (0 Bft) N 0 1,4 C 2,0 C 0,0 km/h (0 Bft) 100,00 %
25.10.2021 05:47 2,1 C 96 % 1024,3 hPa 0,0 l/m 0,0 km/h (0 Bft) N 0 1,5 C 2,1 C 0,0 km/h (0 Bft) 91,30 %
25.10.2021 05:46 2,0 C 96 % 1024,3 hPa 0,0 l/m 0,0 km/h (0 Bft) N 0 1,4 C 2,0 C 0,0 km/h (0 Bft) 95,65 %
25.10.2021 05:45 2,0 C 96 % 1024,3 hPa 0,0 l/m 0,0 km/h (0 Bft) N 0 1,4 C 2,0 C 0,0 km/h (0 Bft) 95,65 %
25.10.2021 05:44 2,0 C 96 % 1024,2 hPa 0,0 l/m 0,0 km/h (0 Bft) N 0 1,4 C 2,0 C 0,0 km/h (0 Bft) 100,00 %
25.10.2021 05:43 2,0 C 96 % 1024,3 hPa 0,0 l/m 0,0 km/h (0 Bft) N 0 1,4 C 2,0 C 0,0 km/h (0 Bft) 100,00 %
25.10.2021 05:42 2,0 C 96 % 1024,3 hPa 0,0 l/m 0,0 km/h (0 Bft) N 0 1,4 C 2,0 C 0,0 km/h (0 Bft) 100,00 %
25.10.2021 05:41 2,0 C 96 % 1024,1 hPa 0,0 l/m 0,0 km/h (0 Bft) N 0 1,4 C 2,0 C 0,0 km/h (0 Bft) 100,00 %
25.10.2021 05:40 2,0 C 96 % 1024,2 hPa 0,0 l/m 0,0 km/h (0 Bft) N 0 1,4 C 2,0 C 0,0 km/h (0 Bft) 95,65 %
25.10.2021 05:39 2,0 C 96 % 1024,2 hPa 0,0 l/m 0,0 km/h (0 Bft) N 0 1,4 C 2,0 C 0,0 km/h (0 Bft) 100,00 %
25.10.2021 05:38 1,9 C 96 % 1024,2 hPa 0,0 l/m 0,0 km/h (0 Bft) N 0 1,3 C 1,9 C 0,0 km/h (0 Bft) 95,65 %
25.10.2021 05:37 1,9 C 96 % 1024,3 hPa 0,0 l/m 0,0 km/h (0 Bft) N 0 1,3 C 1,9 C 0,0 km/h (0 Bft) 100,00 %
25.10.2021 05:36 1,9 C 95 % 1024,2 hPa 0,0 l/m 0,0 km/h (0 Bft) N 0 1,2 C 1,9 C 0,0 km/h (0 Bft) 95,65 %
25.10.2021 05:35 1,9 C 95 % 1024,1 hPa 0,0 l/m 0,0 km/h (0 Bft) N 0 1,2 C 1,9 C 0,0 km/h (0 Bft) 100,00 %
25.10.2021 05:34 1,8 C 95 % 1024,3 hPa 0,0 l/m 0,0 km/h (0 Bft) N 0 1,1 C 1,8 C 0,0 km/h (0 Bft) 95,65 %
25.10.2021 05:33 1,8 C 95 % 1024,1 hPa 0,0 l/m 0,0 km/h (0 Bft) N 0 1,1 C 1,8 C 0,0 km/h (0 Bft) 95,65 %
25.10.2021 05:32 1,8 C 95 % 1024,1 hPa 0,0 l/m 0,0 km/h (0 Bft) N 0 1,1 C 1,8 C 0,0 km/h (0 Bft) 100,00 %
25.10.2021 05:31 1,8 C 95 % 1024,2 hPa 0,0 l/m 0,0 km/h (0 Bft) N 0 1,1 C 1,8 C 0,0 km/h (0 Bft) 95,65 %
25.10.2021 05:30 1,8 C 95 % 1024,2 hPa 0,0 l/m 0,0 km/h (0 Bft) N 0 1,1 C 1,8 C 0,0 km/h (0 Bft) 95,65 %
25.10.2021 05:29 1,8 C 95 % 1024,2 hPa 0,0 l/m 0,0 km/h (0 Bft) N 0 1,1 C 1,8 C 0,0 km/h (0 Bft) 100,00 %
25.10.2021 05:28 1,8 C 95 % 1024,2 hPa 0,0 l/m 0,0 km/h (0 Bft) N 0 1,1 C 1,8 C 0,0 km/h (0 Bft) 95,65 %
25.10.2021 05:27 1,8 C 95 % 1024,2 hPa 0,0 l/m 0,0 km/h (0 Bft) N 0 1,1 C 1,8 C 0,0 km/h (0 Bft) 100,00 %
25.10.2021 05:26 1,8 C 95 % 1024,2 hPa 0,0 l/m 0,0 km/h (0 Bft) N 0 1,1 C 1,8 C 0,0 km/h (0 Bft) 91,30 %
25.10.2021 05:25 1,7 C 95 % 1024,1 hPa 0,0 l/m 0,0 km/h (0 Bft) N 0 1,0 C 1,7 C 0,0 km/h (0 Bft) 95,65 %
25.10.2021 05:24 1,7 C 94 % 1024,2 hPa 0,0 l/m 0,0 km/h (0 Bft) N 0 0,8 C 1,7 C 0,0 km/h (0 Bft) 95,65 %
25.10.2021 05:23 1,7 C 94 % 1024,2 hPa 0,0 l/m 0,0 km/h (0 Bft) N 0 0,8 C 1,7 C 0,0 km/h (0 Bft) 91,30 %
25.10.2021 05:22 1,7 C 94 % 1024,2 hPa 0,0 l/m 0,0 km/h (0 Bft) N 0 0,8 C 1,7 C 0,0 km/h (0 Bft) 100,00 %
25.10.2021 05:21 1,8 C 94 % 1024,2 hPa 0,0 l/m 0,0 km/h (0 Bft) N 0 0,9 C 1,8 C 0,0 km/h (0 Bft) 91,30 %
25.10.2021 05:20 1,8 C 94 % 1024,2 hPa 0,0 l/m 0,0 km/h (0 Bft) N 0 0,9 C 1,8 C 0,0 km/h (0 Bft) 95,65 %
25.10.2021 05:19 1,8 C 94 % 1024,2 hPa 0,0 l/m 0,0 km/h (0 Bft) N 0 0,9 C 1,8 C 0,0 km/h (0 Bft) 100,00 %
25.10.2021 05:18 1,9 C 94 % 1024,2 hPa 0,0 l/m 0,0 km/h (0 Bft) N 0 1,0 C 1,9 C 0,0 km/h (0 Bft) 100,00 %
25.10.2021 05:17 1,9 C 94 % 1024,2 hPa 0,0 l/m 0,0 km/h (0 Bft) N 0 1,0 C 1,9 C 0,0 km/h (0 Bft) 100,00 %
25.10.2021 05:16 1,9 C 94 % 1024,2 hPa 0,0 l/m 0,0 km/h (0 Bft) N 0 1,0 C 1,9 C 0,0 km/h (0 Bft) 95,65 %
25.10.2021 05:15 1,9 C 94 % 1024,2 hPa 0,0 l/m 0,0 km/h (0 Bft) N 0 1,0 C 1,9 C 0,0 km/h (0 Bft) 91,30 %
25.10.2021 05:14 1,9 C 94 % 1024,2 hPa 0,0 l/m 0,0 km/h (0 Bft) N 0 1,0 C 1,9 C 0,0 km/h (0 Bft) 100,00 %
25.10.2021 05:13 2,0 C 94 % 1024,2 hPa 0,0 l/m 0,0 km/h (0 Bft) N 0 1,1 C 2,0 C 0,0 km/h (0 Bft) 100,00 %
25.10.2021 05:12 2,1 C 94 % 1024,1 hPa 0,0 l/m 0,0 km/h (0 Bft) N 0 1,2 C 2,1 C 0,0 km/h (0 Bft) 100,00 %
25.10.2021 05:11 2,1 C 94 % 1024,1 hPa 0,0 l/m 0,0 km/h (0 Bft) N 0 1,2 C 2,1 C 0,0 km/h (0 Bft) 95,65 %
25.10.2021 05:10 2,1 C 94 % 1024,1 hPa 0,0 l/m 0,0 km/h (0 Bft) N 0 1,2 C 2,1 C 0,0 km/h (0 Bft) 100,00 %
25.10.2021 05:09 2,1 C 94 % 1024,1 hPa 0,0 l/m 0,0 km/h (0 Bft) N 0 1,2 C 2,1 C 0,0 km/h (0 Bft) 95,65 %
25.10.2021 05:08 2,2 C 94 % 1024,1 hPa 0,0 l/m 0,0 km/h (0 Bft) N 0 1,3 C 2,2 C 0,0 km/h (0 Bft) 100,00 %
25.10.2021 05:07 2,2 C 94 % 1024,1 hPa 0,0 l/m 0,0 km/h (0 Bft) N 0 1,3 C 2,2 C 0,0 km/h (0 Bft) 95,65 %
25.10.2021 05:06 2,2 C 94 % 1024,1 hPa 0,0 l/m 0,0 km/h (0 Bft) N 0 1,3 C 2,2 C 0,0 km/h (0 Bft) 95,65 %
25.10.2021 05:05 2,2 C 94 % 1024,1 hPa 0,0 l/m 0,0 km/h (0 Bft) N 0 1,3 C 2,2 C 0,0 km/h (0 Bft) 100,00 %
25.10.2021 05:04 2,2 C 94 % 1024,0 hPa 0,0 l/m 0,0 km/h (0 Bft) N 0 1,3 C 2,2 C 0,0 km/h (0 Bft) 91,30 %
25.10.2021 05:03 2,2 C 94 % 1024,1 hPa 0,0 l/m 0,0 km/h (0 Bft) N 0 1,3 C 2,2 C 0,0 km/h (0 Bft) 95,65 %
25.10.2021 05:02 2,2 C 94 % 1024,1 hPa 0,0 l/m 0,0 km/h (0 Bft) N 0 1,3 C 2,2 C 0,0 km/h (0 Bft) 95,65 %
25.10.2021 05:01 2,2 C 94 % 1024,0 hPa 0,0 l/m 0,0 km/h (0 Bft) N 0 1,3 C 2,2 C 0,0 km/h (0 Bft) 95,65 %
25.10.2021 05:00 2,2 C 94 % 1024,0 hPa 0,0 l/m 0,0 km/h (0 Bft) N 0 1,3 C 2,2 C 0,0 km/h (0 Bft) 100,00 %
25.10.2021 04:59 2,2 C 94 % 1024,1 hPa 0,0 l/m 0,0 km/h (0 Bft) N 0 1,3 C 2,2 C 0,0 km/h (0 Bft) 91,30 %
25.10.2021 04:58 2,2 C 94 % 1024,0 hPa 0,0 l/m 0,0 km/h (0 Bft) N 0 1,3 C 2,2 C 0,0 km/h (0 Bft) 100,00 %
25.10.2021 04:57 2,2 C 94 % 1024,1 hPa 0,0 l/m 0,0 km/h (0 Bft) N 0 1,3 C 2,2 C 0,0 km/h (0 Bft) 91,30 %
25.10.2021 04:56 2,2 C 94 % 1024,1 hPa 0,0 l/m 0,0 km/h (0 Bft) N 0 1,3 C 2,2 C 0,0 km/h (0 Bft) 91,30 %
25.10.2021 04:55 2,2 C 94 % 1024,1 hPa 0,0 l/m 0,0 km/h (0 Bft) N 0 1,3 C 2,2 C 0,0 km/h (0 Bft) 100,00 %
25.10.2021 04:54 2,2 C 94 % 1024,0 hPa 0,0 l/m 0,0 km/h (0 Bft) N 0 1,3 C 2,2 C 0,0 km/h (0 Bft) 95,65 %
25.10.2021 04:53 2,2 C 94 % 1024,0 hPa 0,0 l/m 0,0 km/h (0 Bft) N 0 1,3 C 2,2 C 0,0 km/h (0 Bft) 100,00 %
25.10.2021 04:52 2,2 C 94 % 1024,0 hPa 0,0 l/m 0,0 km/h (0 Bft) N 0 1,3 C 2,2 C 0,0 km/h (0 Bft) 95,65 %
25.10.2021 04:51 2,1 C 94 % 1024,1 hPa 0,0 l/m 0,0 km/h (0 Bft) N 0 1,2 C 2,1 C 0,0 km/h (0 Bft) 91,30 %
25.10.2021 04:50 2,2 C 94 % 1024,1 hPa 0,0 l/m 0,0 km/h (0 Bft) N 0 1,3 C 2,2 C 0,0 km/h (0 Bft) 95,65 %
25.10.2021 04:49 2,1 C 94 % 1024,0 hPa 0,0 l/m 0,0 km/h (0 Bft) N 0 1,2 C 2,1 C 0,0 km/h (0 Bft) 100,00 %
25.10.2021 04:48 2,1 C 94 % 1024,0 hPa 0,0 l/m 0,0 km/h (0 Bft) N 0 1,2 C 2,1 C 0,0 km/h (0 Bft) 95,65 %
25.10.2021 04:47 2,2 C 94 % 1024,0 hPa 0,0 l/m 0,0 km/h (0 Bft) N 0 1,3 C 2,2 C 0,0 km/h (0 Bft) 95,65 %
25.10.2021 04:46 2,2 C 94 % 1024,0 hPa 0,0 l/m 0,0 km/h (0 Bft) N 0 1,3 C 2,2 C 0,0 km/h (0 Bft) 100,00 %
25.10.2021 04:45 2,2 C 94 % 1023,9 hPa 0,0 l/m 0,0 km/h (0 Bft) N 0 1,3 C 2,2 C 0,0 km/h (0 Bft) 100,00 %
25.10.2021 04:44 2,2 C 94 % 1024,0 hPa 0,0 l/m 0,0 km/h (0 Bft) N 0 1,3 C 2,2 C 0,0 km/h (0 Bft) 91,30 %
25.10.2021 04:43 2,2 C 94 % 1024,0 hPa 0,0 l/m 0,0 km/h (0 Bft) N 0 1,3 C 2,2 C 0,0 km/h (0 Bft) 95,65 %
25.10.2021 04:42 2,1 C 94 % 1024,0 hPa 0,0 l/m 0,0 km/h (0 Bft) N 0 1,2 C 2,1 C 0,0 km/h (0 Bft) 91,30 %
25.10.2021 04:41 2,1 C 94 % 1024,0 hPa 0,0 l/m 0,0 km/h (0 Bft) N 0 1,2 C 2,1 C 0,0 km/h (0 Bft) 100,00 %
25.10.2021 04:40 2,1 C 94 % 1024,0 hPa 0,0 l/m 0,0 km/h (0 Bft) N 0 1,2 C 2,1 C 0,0 km/h (0 Bft) 95,65 %
25.10.2021 04:39 2,1 C 94 % 1024,1 hPa 0,0 l/m 0,0 km/h (0 Bft) N 0 1,2 C 2,1 C 0,0 km/h (0 Bft) 100,00 %
25.10.2021 04:38 2,1 C 94 % 1024,1 hPa 0,0 l/m 0,0 km/h (0 Bft) N 0 1,2 C 2,1 C 0,0 km/h (0 Bft) 100,00 %
25.10.2021 04:37 2,1 C 94 % 1024,1 hPa 0,0 l/m 0,0 km/h (0 Bft) N 0 1,2 C 2,1 C 0,0 km/h (0 Bft) 95,65 %
25.10.2021 04:36 2,0 C 94 % 1024,1 hPa 0,0 l/m 0,0 km/h (0 Bft) N 0 1,1 C 2,0 C 0,0 km/h (0 Bft) 100,00 %
25.10.2021 04:35 2,0 C 94 % 1024,1 hPa 0,0 l/m 0,0 km/h (0 Bft) N 0 1,1 C 2,0 C 0,0 km/h (0 Bft) 100,00 %
25.10.2021 04:34 1,9 C 94 % 1024,0 hPa 0,0 l/m 0,0 km/h (0 Bft) N 0 1,0 C 1,9 C 0,0 km/h (0 Bft) 100,00 %
25.10.2021 04:33 1,9 C 94 % 1024,1 hPa 0,0 l/m 0,0 km/h (0 Bft) N 0 1,0 C 1,9 C 0,0 km/h (0 Bft) 100,00 %
25.10.2021 04:32 1,9 C 93 % 1024,1 hPa 0,0 l/m 0,0 km/h (0 Bft) N 0 0,9 C 1,9 C 0,0 km/h (0 Bft) 95,65 %
25.10.2021 04:31 1,9 C 93 % 1024,1 hPa 0,0 l/m 0,0 km/h (0 Bft) N 0 0,9 C 1,9 C 0,0 km/h (0 Bft) 95,65 %
25.10.2021 04:30 1,9 C 93 % 1024,1 hPa 0,0 l/m 0,0 km/h (0 Bft) N 0 0,9 C 1,9 C 0,0 km/h (0 Bft) 95,65 %
25.10.2021 04:29 1,9 C 93 % 1024,1 hPa 0,0 l/m 0,0 km/h (0 Bft) N 0 0,9 C 1,9 C 0,0 km/h (0 Bft) 100,00 %
25.10.2021 04:28 1,9 C 92 % 1024,1 hPa 0,0 l/m 0,0 km/h (0 Bft) N 0 0,7 C 1,9 C 0,0 km/h (0 Bft) 91,30 %
25.10.2021 04:27 2,0 C 92 % 1024,0 hPa 0,0 l/m 0,0 km/h (0 Bft) N 0 0,8 C 2,0 C 0,0 km/h (0 Bft) 95,65 %
25.10.2021 04:26 2,0 C 92 % 1024,1 hPa 0,0 l/m 0,0 km/h (0 Bft) N 0 0,8 C 2,0 C 0,0 km/h (0 Bft) 95,65 %
25.10.2021 04:25 2,1 C 92 % 1024,1 hPa 0,0 l/m 0,0 km/h (0 Bft) N 0 0,9 C 2,1 C 0,0 km/h (0 Bft) 91,30 %
25.10.2021 04:24 2,1 C 93 % 1024,1 hPa 0,0 l/m 0,0 km/h (0 Bft) N 0 1,1 C 2,1 C 0,0 km/h (0 Bft) 100,00 %
25.10.2021 04:23 2,2 C 93 % 1024,2 hPa 0,0 l/m 0,0 km/h (0 Bft) N 0 1,2 C 2,2 C 0,0 km/h (0 Bft) 95,65 %
25.10.2021 04:22 2,2 C 93 % 1024,2 hPa 0,0 l/m 0,0 km/h (0 Bft) N 0 1,2 C 2,2 C 0,0 km/h (0 Bft) 91,30 %
25.10.2021 04:21 2,2 C 93 % 1024,2 hPa 0,0 l/m 0,0 km/h (0 Bft) N 0 1,2 C 2,2 C 0,0 km/h (0 Bft) 100,00 %
25.10.2021 04:20 2,3 C 93 % 1024,2 hPa 0,0 l/m 0,0 km/h (0 Bft) N 0 1,3 C 2,3 C 0,0 km/h (0 Bft) 95,65 %
25.10.2021 04:19 2,3 C 93 % 1024,1 hPa 0,0 l/m 0,0 km/h (0 Bft) N 0 1,3 C 2,3 C 0,0 km/h (0 Bft) 95,65 %
25.10.2021 04:18 2,3 C 93 % 1024,0 hPa 0,0 l/m 0,0 km/h (0 Bft) N 0 1,3 C 2,3 C 0,0 km/h (0 Bft) 91,30 %
25.10.2021 04:17 2,3 C 93 % 1024,1 hPa 0,0 l/m 0,0 km/h (0 Bft) N 0 1,3 C 2,3 C 0,0 km/h (0 Bft) 100,00 %
25.10.2021 04:16 2,3 C 93 % 1024,1 hPa 0,0 l/m 0,0 km/h (0 Bft) N 0 1,3 C 2,3 C 0,0 km/h (0 Bft) 95,65 %
25.10.2021 04:15 2,4 C 92 % 1024,1 hPa 0,0 l/m 0,0 km/h (0 Bft) N 0 1,2 C 2,4 C 0,0 km/h (0 Bft) 95,65 %
25.10.2021 04:14 2,4 C 92 % 1024,0 hPa 0,0 l/m 0,0 km/h (0 Bft) N 0 1,2 C 2,4 C 0,0 km/h (0 Bft) 100,00 %
25.10.2021 04:13 2,4 C 92 % 1024,0 hPa 0,0 l/m 0,0 km/h (0 Bft) N 0 1,2 C 2,4 C 0,0 km/h (0 Bft) 95,65 %
25.10.2021 04:12 2,4 C 93 % 1024,1 hPa 0,0 l/m 0,0 km/h (0 Bft) N 0 1,4 C 2,4 C 0,0 km/h (0 Bft) 100,00 %
25.10.2021 04:11 2,4 C 93 % 1024,1 hPa 0,0 l/m 0,0 km/h (0 Bft) N 0 1,4 C 2,4 C 0,0 km/h (0 Bft) 91,30 %
25.10.2021 04:10 2,5 C 93 % 1024,2 hPa 0,0 l/m 0,0 km/h (0 Bft) N 0 1,5 C 2,5 C 0,0 km/h (0 Bft) 100,00 %
25.10.2021 04:09 2,5 C 93 % 1024,1 hPa 0,0 l/m 0,0 km/h (0 Bft) N 0 1,5 C 2,5 C 0,0 km/h (0 Bft) 100,00 %
25.10.2021 04:08 2,5 C 92 % 1024,1 hPa 0,0 l/m 0,0 km/h (0 Bft) N 0 1,3 C 2,5 C 0,0 km/h (0 Bft) 95,65 %
25.10.2021 04:07 2,5 C 92 % 1024,2 hPa 0,0 l/m 0,0 km/h (0 Bft) N 0 1,3 C 2,5 C 0,0 km/h (0 Bft) 100,00 %
25.10.2021 04:06 2,5 C 92 % 1024,1 hPa 0,0 l/m 0,0 km/h (0 Bft) N 0 1,3 C 2,5 C 0,0 km/h (0 Bft) 91,30 %
25.10.2021 04:05 2,5 C 92 % 1024,1 hPa 0,0 l/m 0,0 km/h (0 Bft) N 0 1,3 C 2,5 C 0,0 km/h (0 Bft) 100,00 %
25.10.2021 04:04 2,6 C 92 % 1024,1 hPa 0,0 l/m 0,0 km/h (0 Bft) N 0 1,4 C 2,6 C 0,0 km/h (0 Bft) 100,00 %
25.10.2021 04:03 2,6 C 92 % 1024,1 hPa 0,0 l/m 0,0 km/h (0 Bft) N 0 1,4 C 2,6 C 0,0 km/h (0 Bft) 100,00 %
25.10.2021 04:02 2,6 C 93 % 1024,2 hPa 0,0 l/m 0,0 km/h (0 Bft) N 0 1,6 C 2,6 C 0,0 km/h (0 Bft) 95,65 %
25.10.2021 04:01 2,6 C 93 % 1024,1 hPa 0,0 l/m 0,0 km/h (0 Bft) N 0 1,6 C 2,6 C 0,0 km/h (0 Bft) 95,65 %
25.10.2021 04:00 2,6 C 93 % 1024,2 hPa 0,0 l/m 0,0 km/h (0 Bft) N 0 1,6 C 2,6 C 0,0 km/h (0 Bft) 100,00 %
25.10.2021 03:59 2,6 C 93 % 1024,2 hPa 0,0 l/m 0,0 km/h (0 Bft) N 0 1,6 C 2,6 C 0,0 km/h (0 Bft) 91,30 %
25.10.2021 03:58 2,6 C 92 % 1024,1 hPa 0,0 l/m 0,0 km/h (0 Bft) N 0 1,4 C 2,6 C 0,0 km/h (0 Bft) 91,30 %
25.10.2021 03:57 2,6 C 92 % 1024,2 hPa 0,0 l/m 0,0 km/h (0 Bft) N 0 1,4 C 2,6 C 0,0 km/h (0 Bft) 95,65 %
25.10.2021 03:56 2,6 C 92 % 1024,1 hPa 0,0 l/m 0,0 km/h (0 Bft) N 0 1,4 C 2,6 C 0,0 km/h (0 Bft) 95,65 %
25.10.2021 03:55 2,6 C 92 % 1024,1 hPa 0,0 l/m 0,0 km/h (0 Bft) N 0 1,4 C 2,6 C 0,0 km/h (0 Bft) 95,65 %
25.10.2021 03:54 2,6 C 93 % 1024,2 hPa 0,0 l/m 0,0 km/h (0 Bft) N 0 1,6 C 2,6 C 0,0 km/h (0 Bft) 95,65 %
25.10.2021 03:53 2,6 C 92 % 1024,3 hPa 0,0 l/m 0,0 km/h (0 Bft) N 0 1,4 C 2,6 C 0,0 km/h (0 Bft) 95,65 %
25.10.2021 03:52 2,6 C 92 % 1024,2 hPa 0,0 l/m 0,0 km/h (0 Bft) N 0 1,4 C 2,6 C 0,0 km/h (0 Bft) 95,65 %
25.10.2021 03:51 2,5 C 92 % 1024,2 hPa 0,0 l/m 0,0 km/h (0 Bft) N 0 1,3 C 2,5 C 0,0 km/h (0 Bft) 100,00 %
25.10.2021 03:50 2,5 C 92 % 1024,2 hPa 0,0 l/m 0,0 km/h (0 Bft) N 0 1,3 C 2,5 C 0,0 km/h (0 Bft) 100,00 %
25.10.2021 03:49 2,6 C 92 % 1024,3 hPa 0,0 l/m 0,0 km/h (0 Bft) N 0 1,4 C 2,6 C 0,0 km/h (0 Bft) 91,30 %
25.10.2021 03:48 2,5 C 92 % 1024,2 hPa 0,0 l/m 0,0 km/h (0 Bft) N 0 1,3 C 2,5 C 0,0 km/h (0 Bft) 95,65 %
25.10.2021 03:47 2,5 C 92 % 1024,3 hPa 0,0 l/m 0,0 km/h (0 Bft) N 0 1,3 C 2,5 C 0,0 km/h (0 Bft) 91,30 %
25.10.2021 03:46 2,6 C 92 % 1024,3 hPa 0,0 l/m 0,0 km/h (0 Bft) N 0 1,4 C 2,6 C 0,0 km/h (0 Bft) 91,30 %
25.10.2021 03:45 2,6 C 92 % 1024,2 hPa 0,0 l/m 0,0 km/h (0 Bft) N 0 1,4 C 2,6 C 0,0 km/h (0 Bft) 100,00 %
25.10.2021 03:44 2,5 C 92 % 1024,3 hPa 0,0 l/m 0,0 km/h (0 Bft) N 0 1,3 C 2,5 C 0,0 km/h (0 Bft) 91,30 %
25.10.2021 03:43 2,5 C 92 % 1024,3 hPa 0,0 l/m 0,0 km/h (0 Bft) N 0 1,3 C 2,5 C 0,0 km/h (0 Bft) 95,65 %
25.10.2021 03:42 2,5 C 92 % 1024,3 hPa 0,0 l/m 0,0 km/h (0 Bft) N 0 1,3 C 2,5 C 0,0 km/h (0 Bft) 91,30 %
25.10.2021 03:41 2,5 C 92 % 1024,4 hPa 0,0 l/m 0,0 km/h (0 Bft) N 0 1,3 C 2,5 C 0,0 km/h (0 Bft) 95,65 %
25.10.2021 03:40 2,5 C 92 % 1024,4 hPa 0,0 l/m 0,0 km/h (0 Bft) N 0 1,3 C 2,5 C 0,0 km/h (0 Bft) 100,00 %
25.10.2021 03:39 2,6 C 92 % 1024,4 hPa 0,0 l/m 0,0 km/h (0 Bft) N 0 1,4 C 2,6 C 0,0 km/h (0 Bft) 95,65 %
25.10.2021 03:38 2,6 C 92 % 1024,4 hPa 0,0 l/m 0,0 km/h (0 Bft) N 0 1,4 C 2,6 C 0,0 km/h (0 Bft) 95,65 %
25.10.2021 03:37 2,5 C 92 % 1024,4 hPa 0,0 l/m 0,0 km/h (0 Bft) N 0 1,3 C 2,5 C 0,0 km/h (0 Bft) 95,65 %
25.10.2021 03:36 2,6 C 92 % 1024,4 hPa 0,0 l/m 0,0 km/h (0 Bft) N 0 1,4 C 2,6 C 0,0 km/h (0 Bft) 100,00 %
25.10.2021 03:35 2,6 C 92 % 1024,4 hPa 0,0 l/m 0,0 km/h (0 Bft) N 0 1,4 C 2,6 C 0,0 km/h (0 Bft) 95,65 %
25.10.2021 03:34 2,6 C 92 % 1024,4 hPa 0,0 l/m 0,0 km/h (0 Bft) N 0 1,4 C 2,6 C 0,0 km/h (0 Bft) 95,65 %
25.10.2021 03:33 2,6 C 92 % 1024,4 hPa 0,0 l/m 0,0 km/h (0 Bft) N 0 1,4 C 2,6 C 0,0 km/h (0 Bft) 100,00 %
25.10.2021 03:32 2,6 C 92 % 1024,4 hPa 0,0 l/m 0,0 km/h (0 Bft) N 0 1,4 C 2,6 C 0,0 km/h (0 Bft) 100,00 %
25.10.2021 03:31 2,6 C 92 % 1024,4 hPa 0,0 l/m 0,0 km/h (0 Bft) N 0 1,4 C 2,6 C 0,0 km/h (0 Bft) 100,00 %
25.10.2021 03:30 2,5 C 92 % 1024,4 hPa 0,0 l/m 0,0 km/h (0 Bft) N 0 1,3 C 2,5 C 0,0 km/h (0 Bft) 91,30 %
25.10.2021 03:29 2,6 C 92 % 1024,5 hPa 0,0 l/m 0,0 km/h (0 Bft) N 0 1,4 C 2,6 C 0,0 km/h (0 Bft) 95,65 %
25.10.2021 03:28 2,6 C 92 % 1024,3 hPa 0,0 l/m 0,0 km/h (0 Bft) N 0 1,4 C 2,6 C 0,0 km/h (0 Bft) 100,00 %
25.10.2021 03:27 2,5 C 91 % 1024,4 hPa 0,0 l/m 0,0 km/h (0 Bft) N 0 1,2 C 2,5 C 0,0 km/h (0 Bft) 91,30 %
25.10.2021 03:26 2,5 C 91 % 1024,4 hPa 0,0 l/m 0,0 km/h (0 Bft) N 0 1,2 C 2,5 C 0,0 km/h (0 Bft) 100,00 %
25.10.2021 03:25 2,5 C 91 % 1024,4 hPa 0,0 l/m 0,0 km/h (0 Bft) N 0 1,2 C 2,5 C 0,0 km/h (0 Bft) 91,30 %
25.10.2021 03:24 2,6 C 90 % 1024,4 hPa 0,0 l/m 0,0 km/h (0 Bft) N 0 1,1 C 2,6 C 0,0 km/h (0 Bft) 100,00 %
25.10.2021 03:23 2,6 C 90 % 1024,3 hPa 0,0 l/m 0,0 km/h (0 Bft) N 0 1,1 C 2,6 C 0,0 km/h (0 Bft) 95,65 %
25.10.2021 03:22 2,6 C 90 % 1024,5 hPa 0,0 l/m 0,0 km/h (0 Bft) N 0 1,1 C 2,6 C 0,0 km/h (0 Bft) 100,00 %
25.10.2021 03:21 2,7 C 90 % 1024,4 hPa 0,0 l/m 0,0 km/h (0 Bft) N 0 1,2 C 2,7 C 0,0 km/h (0 Bft) 95,65 %
25.10.2021 03:20 2,7 C 90 % 1024,5 hPa 0,0 l/m 0,0 km/h (0 Bft) N 0 1,2 C 2,7 C 0,0 km/h (0 Bft) 91,30 %
25.10.2021 03:19 2,8 C 90 % 1024,4 hPa 0,0 l/m 0,0 km/h (0 Bft) N 0 1,3 C 2,8 C 0,0 km/h (0 Bft) 95,65 %
25.10.2021 03:18 2,8 C 90 % 1024,5 hPa 0,0 l/m 0,0 km/h (0 Bft) N 0 1,3 C 2,8 C 0,0 km/h (0 Bft) 95,65 %
25.10.2021 03:17 2,8 C 90 % 1024,5 hPa 0,0 l/m 0,0 km/h (0 Bft) N 0 1,3 C 2,8 C 0,0 km/h (0 Bft) 100,00 %
25.10.2021 03:16 2,9 C 90 % 1024,4 hPa 0,0 l/m 0,0 km/h (0 Bft) N 0 1,4 C 2,9 C 0,0 km/h (0 Bft) 95,65 %
25.10.2021 03:15 2,9 C 90 % 1024,4 hPa 0,0 l/m 0,0 km/h (0 Bft) N 0 1,4 C 2,9 C 0,0 km/h (0 Bft) 91,30 %
25.10.2021 03:14 2,9 C 89 % 1024,4 hPa 0,0 l/m 0,0 km/h (0 Bft) N 0 1,3 C 2,9 C 0,0 km/h (0 Bft) 95,65 %
25.10.2021 03:13 2,9 C 89 % 1024,5 hPa 0,0 l/m 0,0 km/h (0 Bft) N 0 1,3 C 2,9 C 0,0 km/h (0 Bft) 95,65 %
25.10.2021 03:12 3,0 C 89 % 1024,5 hPa 0,0 l/m 0,0 km/h (0 Bft) N 0 1,4 C 3,0 C 0,0 km/h (0 Bft) 100,00 %
25.10.2021 03:11 3,1 C 89 % 1024,5 hPa 0,0 l/m 0,0 km/h (0 Bft) N 0 1,5 C 3,1 C 0,0 km/h (0 Bft) 95,65 %
25.10.2021 03:10 3,1 C 89 % 1024,5 hPa 0,0 l/m 0,0 km/h (0 Bft) N 0 1,5 C 3,1 C 0,0 km/h (0 Bft) 95,65 %
25.10.2021 03:09 3,1 C 89 % 1024,4 hPa 0,0 l/m 0,0 km/h (0 Bft) N 0 1,5 C 3,1 C 0,0 km/h (0 Bft) 91,30 %
25.10.2021 03:08 3,2 C 89 % 1024,5 hPa 0,0 l/m 0,0 km/h (0 Bft) N 0 1,6 C 3,2 C 0,0 km/h (0 Bft) 91,30 %
25.10.2021 03:07 3,2 C 89 % 1024,4 hPa 0,0 l/m 0,0 km/h (0 Bft) N 0 1,6 C 3,2 C 0,0 km/h (0 Bft) 100,00 %
25.10.2021 03:06 3,2 C 89 % 1024,5 hPa 0,0 l/m 0,0 km/h (0 Bft) N 0 1,6 C 3,2 C 0,0 km/h (0 Bft) 95,65 %
25.10.2021 03:05 3,2 C 90 % 1024,5 hPa 0,0 l/m 0,0 km/h (0 Bft) N 0 1,7 C 3,2 C 0,0 km/h (0 Bft) 95,65 %
25.10.2021 03:04 3,2 C 90 % 1024,4 hPa 0,0 l/m 0,0 km/h (0 Bft) N 0 1,7 C 3,2 C 0,0 km/h (0 Bft) 30,43 %
25.10.2021 03:03 3,2 C 90 % 1024,5 hPa 0,0 l/m 0,0 km/h (0 Bft) N 0 1,7 C 3,2 C 0,0 km/h (0 Bft) 73,91 %
25.10.2021 03:01 3,2 C 90 % 1024,4 hPa 0,0 l/m 0,0 km/h (0 Bft) N 0 1,7 C 3,2 C 0,0 km/h (0 Bft) 95,65 %
25.10.2021 03:00 3,2 C 89 % 1024,5 hPa 0,0 l/m 0,0 km/h (0 Bft) N 0 1,6 C 3,2 C 0,0 km/h (0 Bft) 91,30 %
25.10.2021 02:59 3,2 C 89 % 1024,6 hPa 0,0 l/m 0,0 km/h (0 Bft) N 0 1,6 C 3,2 C 0,0 km/h (0 Bft) 95,65 %
25.10.2021 02:58 3,2 C 89 % 1024,6 hPa 0,0 l/m 0,0 km/h (0 Bft) N 0 1,6 C 3,2 C 0,0 km/h (0 Bft) 95,65 %
25.10.2021 02:57 3,2 C 89 % 1024,6 hPa 0,0 l/m 0,0 km/h (0 Bft) N 0 1,6 C 3,2 C 0,0 km/h (0 Bft) 100,00 %
25.10.2021 02:56 3,2 C 89 % 1024,6 hPa 0,0 l/m 0,0 km/h (0 Bft) N 0 1,6 C 3,2 C 0,0 km/h (0 Bft) 95,65 %
25.10.2021 02:55 3,2 C 89 % 1024,6 hPa 0,0 l/m 0,0 km/h (0 Bft) N 0 1,6 C 3,2 C 0,0 km/h (0 Bft) 95,65 %
25.10.2021 02:54 3,3 C 90 % 1024,7 hPa 0,0 l/m 0,0 km/h (0 Bft) N 0 1,8 C 3,3 C 0,0 km/h (0 Bft) 91,30 %
25.10.2021 02:53 3,2 C 90 % 1024,6 hPa 0,0 l/m 0,0 km/h (0 Bft) N 0 1,7 C 3,2 C 0,0 km/h (0 Bft) 95,65 %
25.10.2021 02:52 3,2 C 90 % 1024,6 hPa 0,0 l/m 0,0 km/h (0 Bft) N 0 1,7 C 3,2 C 0,0 km/h (0 Bft) 100,00 %
25.10.2021 02:51 3,2 C 89 % 1024,6 hPa 0,0 l/m 0,0 km/h (0 Bft) N 0 1,6 C 3,2 C 0,0 km/h (0 Bft) 91,30 %
25.10.2021 02:50 3,2 C 89 % 1024,6 hPa 0,0 l/m 0,0 km/h (0 Bft) N 0 1,6 C 3,2 C 0,0 km/h (0 Bft) 100,00 %
25.10.2021 02:49 3,2 C 89 % 1024,6 hPa 0,0 l/m 0,0 km/h (0 Bft) N 0 1,6 C 3,2 C 0,0 km/h (0 Bft) 91,30 %
25.10.2021 02:48 3,3 C 89 % 1024,7 hPa 0,0 l/m 0,0 km/h (0 Bft) N 0 1,7 C 3,3 C 0,0 km/h (0 Bft) 100,00 %
25.10.2021 02:47 3,3 C 89 % 1024,6 hPa 0,0 l/m 0,0 km/h (0 Bft) N 0 1,7 C 3,3 C 0,0 km/h (0 Bft) 95,65 %
25.10.2021 02:46 3,3 C 89 % 1024,6 hPa 0,0 l/m 0,0 km/h (0 Bft) N 0 1,7 C 3,3 C 0,0 km/h (0 Bft) 95,65 %
25.10.2021 02:45 3,3 C 89 % 1024,6 hPa 0,0 l/m 0,0 km/h (0 Bft) N 0 1,7 C 3,3 C 0,0 km/h (0 Bft) 100,00 %
25.10.2021 02:44 3,3 C 89 % 1024,7 hPa 0,0 l/m 0,0 km/h (0 Bft) N 0 1,7 C 3,3 C 0,0 km/h (0 Bft) 95,65 %
25.10.2021 02:43 3,3 C 89 % 1024,7 hPa 0,0 l/m 0,0 km/h (0 Bft) N 0 1,7 C 3,3 C 0,0 km/h (0 Bft) 95,65 %
25.10.2021 02:42 3,3 C 90 % 1024,6 hPa 0,0 l/m 0,0 km/h (0 Bft) N 0 1,8 C 3,3 C 0,0 km/h (0 Bft) 91,30 %
25.10.2021 02:41 3,3 C 90 % 1024,7 hPa 0,0 l/m 0,0 km/h (0 Bft) N 0 1,8 C 3,3 C 0,0 km/h (0 Bft) 95,65 %
25.10.2021 02:40 3,2 C 90 % 1024,6 hPa 0,0 l/m 0,0 km/h (0 Bft) N 0 1,7 C 3,2 C 0,0 km/h (0 Bft) 100,00 %
25.10.2021 02:39 3,2 C 89 % 1024,6 hPa 0,0 l/m 0,0 km/h (0 Bft) N 0 1,6 C 3,2 C 0,0 km/h (0 Bft) 100,00 %
25.10.2021 02:38 3,2 C 89 % 1024,6 hPa 0,0 l/m 0,0 km/h (0 Bft) N 0 1,6 C 3,2 C 0,0 km/h (0 Bft) 100,00 %
25.10.2021 02:37 3,2 C 89 % 1024,6 hPa 0,0 l/m 0,0 km/h (0 Bft) N 0 1,6 C 3,2 C 0,0 km/h (0 Bft) 91,30 %
25.10.2021 02:36 3,3 C 89 % 1024,7 hPa 0,0 l/m 0,0 km/h (0 Bft) N 0 1,7 C 3,3 C 0,0 km/h (0 Bft) 91,30 %
25.10.2021 02:35 3,2 C 89 % 1024,6 hPa 0,0 l/m 0,0 km/h (0 Bft) N 0 1,6 C 3,2 C 0,0 km/h (0 Bft) 100,00 %
25.10.2021 02:34 3,3 C 89 % 1024,7 hPa 0,0 l/m 0,0 km/h (0 Bft) N 0 1,7 C 3,3 C 0,0 km/h (0 Bft) 91,30 %
25.10.2021 02:33 3,2 C 89 % 1024,8 hPa 0,0 l/m 0,0 km/h (0 Bft) N 0 1,6 C 3,2 C 0,0 km/h (0 Bft) 100,00 %
25.10.2021 02:32 3,2 C 89 % 1024,7 hPa 0,0 l/m 0,0 km/h (0 Bft) N 0 1,6 C 3,2 C 0,0 km/h (0 Bft) 91,30 %
25.10.2021 02:31 3,2 C 88 % 1024,7 hPa 0,0 l/m 0,0 km/h (0 Bft) N 0 1,4 C 3,2 C 0,0 km/h (0 Bft) 91,30 %
25.10.2021 02:30 3,3 C 88 % 1024,7 hPa 0,0 l/m 0,0 km/h (0 Bft) N 0 1,5 C 3,3 C 0,0 km/h (0 Bft) 100,00 %
25.10.2021 02:29 3,3 C 88 % 1024,7 hPa 0,0 l/m 0,0 km/h (0 Bft) N 0 1,5 C 3,3 C 0,0 km/h (0 Bft) 91,30 %
25.10.2021 02:28 3,3 C 89 % 1024,7 hPa 0,0 l/m 0,0 km/h (0 Bft) N 0 1,7 C 3,3 C 0,0 km/h (0 Bft) 95,65 %
25.10.2021 02:27 3,3 C 89 % 1024,6 hPa 0,0 l/m 0,0 km/h (0 Bft) N 0 1,7 C 3,3 C 0,0 km/h (0 Bft) 95,65 %
25.10.2021 02:26 3,3 C 89 % 1024,7 hPa 0,0 l/m 0,0 km/h (0 Bft) N 0 1,7 C 3,3 C 0,0 km/h (0 Bft) 100,00 %
25.10.2021 02:25 3,3 C 89 % 1024,7 hPa 0,0 l/m 0,0 km/h (0 Bft) N 0 1,7 C 3,3 C 0,0 km/h (0 Bft) 100,00 %
25.10.2021 02:24 3,3 C 89 % 1024,6 hPa 0,0 l/m 0,0 km/h (0 Bft) N 0 1,7 C 3,3 C 0,0 km/h (0 Bft) 91,30 %
25.10.2021 02:23 3,3 C 89 % 1024,7 hPa 0,0 l/m 0,0 km/h (0 Bft) N 0 1,7 C 3,3 C 0,0 km/h (0 Bft) 100,00 %
25.10.2021 02:22 3,3 C 89 % 1024,7 hPa 0,0 l/m 0,0 km/h (0 Bft) N 0 1,7 C 3,3 C 0,0 km/h (0 Bft) 95,65 %
25.10.2021 02:21 3,3 C 88 % 1024,7 hPa 0,0 l/m 0,0 km/h (0 Bft) N 0 1,5 C 3,3 C 0,0 km/h (0 Bft) 100,00 %
25.10.2021 02:20 3,3 C 88 % 1024,6 hPa 0,0 l/m 0,0 km/h (0 Bft) N 0 1,5 C 3,3 C 0,0 km/h (0 Bft) 95,65 %
25.10.2021 02:19 3,3 C 88 % 1024,7 hPa 0,0 l/m 0,0 km/h (0 Bft) N 0 1,5 C 3,3 C 0,0 km/h (0 Bft) 91,30 %
25.10.2021 02:18 3,4 C 88 % 1024,7 hPa 0,0 l/m 0,0 km/h (0 Bft) N 0 1,6 C 3,4 C 0,0 km/h (0 Bft) 95,65 %
25.10.2021 02:17 3,3 C 88 % 1024,8 hPa 0,0 l/m 0,0 km/h (0 Bft) N 0 1,5 C 3,3 C 0,0 km/h (0 Bft) 95,65 %
25.10.2021 02:16 3,4 C 88 % 1024,7 hPa 0,0 l/m 0,0 km/h (0 Bft) N 0 1,6 C 3,4 C 0,0 km/h (0 Bft) 100,00 %
25.10.2021 02:15 3,4 C 88 % 1024,8 hPa 0,0 l/m 0,0 km/h (0 Bft) N 0 1,6 C 3,4 C 0,0 km/h (0 Bft) 100,00 %
25.10.2021 02:14 3,4 C 88 % 1024,8 hPa 0,0 l/m 0,0 km/h (0 Bft) N 0 1,6 C 3,4 C 0,0 km/h (0 Bft) 100,00 %
25.10.2021 02:13 3,4 C 89 % 1024,8 hPa 0,0 l/m 0,0 km/h (0 Bft) N 0 1,8 C 3,4 C 0,0 km/h (0 Bft) 91,30 %
25.10.2021 02:12 3,4 C 88 % 1024,7 hPa 0,0 l/m 0,0 km/h (0 Bft) N 0 1,6 C 3,4 C 0,0 km/h (0 Bft) 100,00 %
25.10.2021 02:11 3,4 C 88 % 1024,8 hPa 0,0 l/m 0,0 km/h (0 Bft) N 0 1,6 C 3,4 C 0,0 km/h (0 Bft) 100,00 %
25.10.2021 02:10 3,4 C 89 % 1024,8 hPa 0,0 l/m 0,0 km/h (0 Bft) N 0 1,8 C 3,4 C 0,0 km/h (0 Bft) 91,30 %
25.10.2021 02:09 3,4 C 89 % 1024,8 hPa 0,0 l/m 0,0 km/h (0 Bft) N 0 1,8 C 3,4 C 0,0 km/h (0 Bft) 100,00 %
25.10.2021 02:08 3,4 C 89 % 1024,8 hPa 0,0 l/m 0,0 km/h (0 Bft) N 0 1,8 C 3,4 C 0,0 km/h (0 Bft) 91,30 %
25.10.2021 02:07 3,4 C 89 % 1024,8 hPa 0,0 l/m 0,0 km/h (0 Bft) N 0 1,8 C 3,4 C 0,0 km/h (0 Bft) 91,30 %
25.10.2021 02:06 3,4 C 89 % 1024,8 hPa 0,0 l/m 0,0 km/h (0 Bft) N 0 1,8 C 3,4 C 0,0 km/h (0 Bft) 95,65 %
25.10.2021 02:05 3,4 C 88 % 1024,8 hPa 0,0 l/m 0,0 km/h (0 Bft) N 0 1,6 C 3,4 C 0,0 km/h (0 Bft) 91,30 %
25.10.2021 02:04 3,4 C 88 % 1024,8 hPa 0,0 l/m 0,0 km/h (0 Bft) N 0 1,6 C 3,4 C 0,0 km/h (0 Bft) 95,65 %
25.10.2021 02:03 3,4 C 88 % 1024,8 hPa 0,0 l/m 0,0 km/h (0 Bft) N 0 1,6 C 3,4 C 0,0 km/h (0 Bft) 91,30 %
25.10.2021 02:02 3,4 C 88 % 1024,8 hPa 0,0 l/m 0,0 km/h (0 Bft) N 0 1,6 C 3,4 C 0,0 km/h (0 Bft) 95,65 %
25.10.2021 02:01 3,4 C 88 % 1024,8 hPa 0,0 l/m 0,0 km/h (0 Bft) N 0 1,6 C 3,4 C 0,0 km/h (0 Bft) 91,30 %
25.10.2021 02:00 3,4 C 88 % 1024,8 hPa 0,0 l/m 0,0 km/h (0 Bft) N 0 1,6 C 3,4 C 0,0 km/h (0 Bft) 95,65 %
25.10.2021 01:59 3,4 C 88 % 1024,8 hPa 0,0 l/m 0,0 km/h (0 Bft) N 0 1,6 C 3,4 C 0,0 km/h (0 Bft) 100,00 %
25.10.2021 01:58 3,5 C 88 % 1024,8 hPa 0,0 l/m 0,0 km/h (0 Bft) N 0 1,7 C 3,5 C 0,0 km/h (0 Bft) 95,65 %
25.10.2021 01:57 3,5 C 88 % 1024,8 hPa 0,0 l/m 0,0 km/h (0 Bft) N 0 1,7 C 3,5 C 0,0 km/h (0 Bft) 100,00 %
25.10.2021 01:56 3,5 C 88 % 1024,8 hPa 0,0 l/m 0,0 km/h (0 Bft) N 0 1,7 C 3,5 C 0,0 km/h (0 Bft) 95,65 %
25.10.2021 01:55 3,6 C 88 % 1024,9 hPa 0,0 l/m 0,0 km/h (0 Bft) N 0 1,8 C 3,6 C 0,0 km/h (0 Bft) 95,65 %
25.10.2021 01:54 3,5 C 88 % 1025,0 hPa 0,0 l/m 0,0 km/h (0 Bft) N 0 1,7 C 3,5 C 0,0 km/h (0 Bft) 100,00 %
25.10.2021 01:53 3,5 C 88 % 1024,9 hPa 0,0 l/m 0,0 km/h (0 Bft) N 0 1,7 C 3,5 C 0,0 km/h (0 Bft) 95,65 %
25.10.2021 01:52 3,6 C 88 % 1024,9 hPa 0,0 l/m 0,0 km/h (0 Bft) N 0 1,8 C 3,6 C 0,0 km/h (0 Bft) 100,00 %
25.10.2021 01:51 3,6 C 88 % 1025,0 hPa 0,0 l/m 0,0 km/h (0 Bft) N 0 1,8 C 3,6 C 0,0 km/h (0 Bft) 95,65 %
25.10.2021 01:50 3,6 C 88 % 1024,9 hPa 0,0 l/m 0,0 km/h (0 Bft) N 0 1,8 C 3,6 C 0,0 km/h (0 Bft) 100,00 %
25.10.2021 01:49 3,5 C 88 % 1024,8 hPa 0,0 l/m 0,0 km/h (0 Bft) N 0 1,7 C 3,5 C 0,0 km/h (0 Bft) 100,00 %
25.10.2021 01:48 3,6 C 88 % 1024,9 hPa 0,0 l/m 0,0 km/h (0 Bft) N 0 1,8 C 3,6 C 0,0 km/h (0 Bft) 95,65 %
25.10.2021 01:47 3,5 C 88 % 1024,9 hPa 0,0 l/m 0,0 km/h (0 Bft) N 0 1,7 C 3,5 C 0,0 km/h (0 Bft) 95,65 %
25.10.2021 01:46 3,6 C 88 % 1025,0 hPa 0,0 l/m 0,0 km/h (0 Bft) N 0 1,8 C 3,6 C 0,0 km/h (0 Bft) 95,65 %
25.10.2021 01:45 3,6 C 88 % 1024,9 hPa 0,0 l/m 0,0 km/h (0 Bft) N 0 1,8 C 3,6 C 0,0 km/h (0 Bft) 100,00 %
25.10.2021 01:44 3,6 C 88 % 1024,9 hPa 0,0 l/m 0,0 km/h (0 Bft) N 0 1,8 C 3,6 C 0,0 km/h (0 Bft) 100,00 %
25.10.2021 01:43 3,5 C 88 % 1025,0 hPa 0,0 l/m 0,0 km/h (0 Bft) N 0 1,7 C 3,5 C 0,0 km/h (0 Bft) 91,30 %
25.10.2021 01:42 3,5 C 88 % 1024,8 hPa 0,0 l/m 0,0 km/h (0 Bft) N 0 1,7 C 3,5 C 0,0 km/h (0 Bft) 100,00 %
25.10.2021 01:41 3,5 C 88 % 1024,8 hPa 0,0 l/m 0,0 km/h (0 Bft) N 0 1,7 C 3,5 C 0,0 km/h (0 Bft) 95,65 %
25.10.2021 01:40 3,5 C 88 % 1024,9 hPa 0,0 l/m 0,0 km/h (0 Bft) N 0 1,7 C 3,5 C 0,0 km/h (0 Bft) 95,65 %
25.10.2021 01:39 3,5 C 88 % 1024,9 hPa 0,0 l/m 0,0 km/h (0 Bft) N 0 1,7 C 3,5 C 0,0 km/h (0 Bft) 95,65 %
25.10.2021 01:38 3,5 C 88 % 1024,9 hPa 0,0 l/m 0,0 km/h (0 Bft) N 0 1,7 C 3,5 C 0,0 km/h (0 Bft) 91,30 %
25.10.2021 01:37 3,6 C 88 % 1024,9 hPa 0,0 l/m 0,0 km/h (0 Bft) N 0 1,8 C 3,6 C 0,0 km/h (0 Bft) 95,65 %
25.10.2021 01:36 3,6 C 88 % 1024,9 hPa 0,0 l/m 0,0 km/h (0 Bft) N 0 1,8 C 3,6 C 0,0 km/h (0 Bft) 95,65 %
25.10.2021 01:35 3,6 C 88 % 1024,8 hPa 0,0 l/m 0,0 km/h (0 Bft) N 0 1,8 C 3,6 C 0,0 km/h (0 Bft) 95,65 %
25.10.2021 01:34 3,5 C 88 % 1024,8 hPa 0,0 l/m 0,0 km/h (0 Bft) N 0 1,7 C 3,5 C 0,0 km/h (0 Bft) 91,30 %
25.10.2021 01:33 3,5 C 88 % 1024,8 hPa 0,0 l/m 0,0 km/h (0 Bft) N 0 1,7 C 3,5 C 0,0 km/h (0 Bft) 100,00 %
25.10.2021 01:32 3,5 C 88 % 1024,8 hPa 0,0 l/m 0,0 km/h (0 Bft) N 0 1,7 C 3,5 C 0,0 km/h (0 Bft) 95,65 %
25.10.2021 01:31 3,4 C 88 % 1024,8 hPa 0,0 l/m 0,0 km/h (0 Bft) N 0 1,6 C 3,4 C 0,0 km/h (0 Bft) 95,65 %
25.10.2021 01:30 3,4 C 88 % 1024,9 hPa 0,0 l/m 0,0 km/h (0 Bft) N 0 1,6 C 3,4 C 0,0 km/h (0 Bft) 100,00 %
25.10.2021 01:29 3,4 C 88 % 1024,9 hPa 0,0 l/m 0,0 km/h (0 Bft) N 0 1,6 C 3,4 C 0,0 km/h (0 Bft) 100,00 %
25.10.2021 01:28 3,4 C 88 % 1025,0 hPa 0,0 l/m 0,0 km/h (0 Bft) N 0 1,6 C 3,4 C 0,0 km/h (0 Bft) 100,00 %
25.10.2021 01:27 3,4 C 88 % 1025,0 hPa 0,0 l/m 0,0 km/h (0 Bft) N 0 1,6 C 3,4 C 0,0 km/h (0 Bft) 95,65 %
25.10.2021 01:26 3,4 C 88 % 1024,9 hPa 0,0 l/m 0,0 km/h (0 Bft) N 0 1,6 C 3,4 C 0,0 km/h (0 Bft) 95,65 %
25.10.2021 01:25 3,4 C 88 % 1025,0 hPa 0,0 l/m 0,0 km/h (0 Bft) N 0 1,6 C 3,4 C 0,0 km/h (0 Bft) 95,65 %
25.10.2021 01:24 3,4 C 88 % 1025,0 hPa 0,0 l/m 0,0 km/h (0 Bft) N 0 1,6 C 3,4 C 0,0 km/h (0 Bft) 95,65 %
25.10.2021 01:23 3,3 C 88 % 1025,0 hPa 0,0 l/m 0,0 km/h (0 Bft) N 0 1,5 C 3,3 C 0,0 km/h (0 Bft) 100,00 %
25.10.2021 01:22 3,3 C 88 % 1024,8 hPa 0,0 l/m 0,0 km/h (0 Bft) N 0 1,5 C 3,3 C 0,0 km/h (0 Bft) 95,65 %
25.10.2021 01:21 3,3 C 88 % 1024,9 hPa 0,0 l/m 0,0 km/h (0 Bft) N 0 1,5 C 3,3 C 0,0 km/h (0 Bft) 100,00 %
25.10.2021 01:20 3,3 C 88 % 1024,8 hPa 0,0 l/m 0,0 km/h (0 Bft) N 0 1,5 C 3,3 C 0,0 km/h (0 Bft) 91,30 %
25.10.2021 01:19 3,4 C 88 % 1024,8 hPa 0,0 l/m 0,0 km/h (0 Bft) N 0 1,6 C 3,4 C 0,0 km/h (0 Bft) 91,30 %
25.10.2021 01:18 3,3 C 88 % 1024,9 hPa 0,0 l/m 0,0 km/h (0 Bft) N 0 1,5 C 3,3 C 0,0 km/h (0 Bft) 100,00 %
25.10.2021 01:17 3,4 C 88 % 1024,9 hPa 0,0 l/m 0,0 km/h (0 Bft) N 0 1,6 C 3,4 C 0,0 km/h (0 Bft) 91,30 %
25.10.2021 01:16 3,4 C 88 % 1024,8 hPa 0,0 l/m 0,0 km/h (0 Bft) N 0 1,6 C 3,4 C 0,0 km/h (0 Bft) 95,65 %
25.10.2021 01:15 3,4 C 88 % 1024,8 hPa 0,0 l/m 0,0 km/h (0 Bft) N 0 1,6 C 3,4 C 0,0 km/h (0 Bft) 95,65 %
25.10.2021 01:14 3,4 C 87 % 1024,8 hPa 0,0 l/m 0,0 km/h (0 Bft) N 0 1,4 C 3,4 C 0,0 km/h (0 Bft) 95,65 %
25.10.2021 01:13 3,4 C 87 % 1024,9 hPa 0,0 l/m 0,0 km/h (0 Bft) N 0 1,4 C 3,4 C 0,0 km/h (0 Bft) 95,65 %
25.10.2021 01:12 3,5 C 87 % 1025,0 hPa 0,0 l/m 0,0 km/h (0 Bft) N 0 1,5 C 3,5 C 0,0 km/h (0 Bft) 95,65 %
25.10.2021 01:11 3,5 C 87 % 1024,8 hPa 0,0 l/m 0,0 km/h (0 Bft) N 0 1,5 C 3,5 C 0,0 km/h (0 Bft) 95,65 %
25.10.2021 01:10 3,6 C 87 % 1024,9 hPa 0,0 l/m 0,0 km/h (0 Bft) N 0 1,6 C 3,6 C 0,0 km/h (0 Bft) 91,30 %
25.10.2021 01:09 3,6 C 87 % 1024,9 hPa 0,0 l/m 0,0 km/h (0 Bft) N 0 1,6 C 3,6 C 0,0 km/h (0 Bft) 95,65 %
25.10.2021 01:08 3,6 C 87 % 1024,9 hPa 0,0 l/m 0,0 km/h (0 Bft) N 0 1,6 C 3,6 C 0,0 km/h (0 Bft) 95,65 %
25.10.2021 01:07 3,6 C 87 % 1024,9 hPa 0,0 l/m 0,0 km/h (0 Bft) N 0 1,6 C 3,6 C 0,0 km/h (0 Bft) 95,65 %
25.10.2021 01:06 3,7 C 86 % 1025,0 hPa 0,0 l/m 0,0 km/h (0 Bft) N 0 1,6 C 3,7 C 0,0 km/h (0 Bft) 100,00 %
25.10.2021 01:05 3,7 C 87 % 1025,0 hPa 0,0 l/m 0,0 km/h (0 Bft) N 0 1,7 C 3,7 C 0,0 km/h (0 Bft) 95,65 %
25.10.2021 01:04 3,7 C 87 % 1025,1 hPa 0,0 l/m 0,0 km/h (0 Bft) N 0 1,7 C 3,7 C 0,0 km/h (0 Bft) 100,00 %
25.10.2021 01:03 3,7 C 87 % 1025,0 hPa 0,0 l/m 0,0 km/h (0 Bft) N 0 1,7 C 3,7 C 0,0 km/h (0 Bft) 95,65 %
25.10.2021 01:02 3,8 C 87 % 1025,0 hPa 0,0 l/m 0,0 km/h (0 Bft) N 0 1,8 C 3,8 C 0,0 km/h (0 Bft) 91,30 %
25.10.2021 01:01 3,8 C 87 % 1025,1 hPa 0,0 l/m 0,0 km/h (0 Bft) N 0 1,8 C 3,8 C 0,0 km/h (0 Bft) 100,00 %
25.10.2021 01:00 3,8 C 87 % 1025,1 hPa 0,0 l/m 0,0 km/h (0 Bft) N 0 1,8 C 3,8 C 0,0 km/h (0 Bft) 95,65 %
25.10.2021 00:59 3,7 C 87 % 1025,1 hPa 0,0 l/m 0,0 km/h (0 Bft) N 0 1,7 C 3,7 C 0,0 km/h (0 Bft) 95,65 %
25.10.2021 00:58 3,7 C 87 % 1025,1 hPa 0,0 l/m 0,0 km/h (0 Bft) N 0 1,7 C 3,7 C 0,0 km/h (0 Bft) 95,65 %
25.10.2021 00:57 3,7 C 87 % 1025,2 hPa 0,0 l/m 0,0 km/h (0 Bft) N 0 1,7 C 3,7 C 0,0 km/h (0 Bft) 91,30 %
25.10.2021 00:56 3,7 C 87 % 1025,2 hPa 0,0 l/m 0,0 km/h (0 Bft) N 0 1,7 C 3,7 C 0,0 km/h (0 Bft) 95,65 %
25.10.2021 00:55 3,7 C 87 % 1025,2 hPa 0,0 l/m 0,0 km/h (0 Bft) N 0 1,7 C 3,7 C 0,0 km/h (0 Bft) 91,30 %
25.10.2021 00:54 3,7 C 86 % 1025,2 hPa 0,0 l/m 0,0 km/h (0 Bft) N 0 1,6 C 3,7 C 0,0 km/h (0 Bft) 100,00 %
25.10.2021 00:53 3,7 C 86 % 1025,2 hPa 0,0 l/m 0,0 km/h (0 Bft) N 0 1,6 C 3,7 C 0,0 km/h (0 Bft) 95,65 %
25.10.2021 00:52 3,8 C 86 % 1025,2 hPa 0,0 l/m 0,0 km/h (0 Bft) N 0 1,7 C 3,8 C 0,0 km/h (0 Bft) 95,65 %
25.10.2021 00:51 3,8 C 86 % 1025,2 hPa 0,0 l/m 0,0 km/h (0 Bft) N 0 1,7 C 3,8 C 0,0 km/h (0 Bft) 91,30 %
25.10.2021 00:50 3,9 C 86 % 1025,3 hPa 0,0 l/m 0,0 km/h (0 Bft) N 0 1,8 C 3,9 C 0,0 km/h (0 Bft) 100,00 %
25.10.2021 00:49 3,9 C 86 % 1025,2 hPa 0,0 l/m 0,0 km/h (0 Bft) N 0 1,8 C 3,9 C 0,0 km/h (0 Bft) 100,00 %
25.10.2021 00:48 3,9 C 86 % 1025,2 hPa 0,0 l/m 0,0 km/h (0 Bft) N 0 1,8 C 3,9 C 0,0 km/h (0 Bft) 100,00 %
25.10.2021 00:47 3,9 C 86 % 1025,2 hPa 0,0 l/m 0,0 km/h (0 Bft) N 0 1,8 C 3,9 C 0,0 km/h (0 Bft) 100,00 %
25.10.2021 00:46 3,9 C 86 % 1025,1 hPa 0,0 l/m 0,0 km/h (0 Bft) N 0 1,8 C 3,9 C 0,0 km/h (0 Bft) 95,65 %
25.10.2021 00:45 3,9 C 86 % 1025,2 hPa 0,0 l/m 0,0 km/h (0 Bft) N 0 1,8 C 3,9 C 0,0 km/h (0 Bft) 95,65 %
25.10.2021 00:44 3,8 C 86 % 1025,2 hPa 0,0 l/m 0,0 km/h (0 Bft) N 0 1,7 C 3,8 C 0,0 km/h (0 Bft) 100,00 %
25.10.2021 00:43 3,9 C 86 % 1025,2 hPa 0,0 l/m 0,0 km/h (0 Bft) N 0 1,8 C 3,9 C 0,0 km/h (0 Bft) 95,65 %
25.10.2021 00:42 3,8 C 86 % 1025,2 hPa 0,0 l/m 0,0 km/h (0 Bft) N 0 1,7 C 3,8 C 0,0 km/h (0 Bft) 95,65 %
25.10.2021 00:41 3,9 C 86 % 1025,2 hPa 0,0 l/m 0,0 km/h (0 Bft) N 0 1,8 C 3,9 C 0,0 km/h (0 Bft) 95,65 %
25.10.2021 00:40 3,9 C 86 % 1025,2 hPa 0,0 l/m 0,0 km/h (0 Bft) N 0 1,8 C 3,9 C 0,0 km/h (0 Bft) 95,65 %
25.10.2021 00:39 3,9 C 86 % 1025,3 hPa 0,0 l/m 0,0 km/h (0 Bft) N 0 1,8 C 3,9 C 0,0 km/h (0 Bft) 100,00 %
25.10.2021 00:38 4,0 C 86 % 1025,2 hPa 0,0 l/m 0,0 km/h (0 Bft) N 0 1,9 C 4,0 C 0,0 km/h (0 Bft) 95,65 %
25.10.2021 00:37 4,0 C 86 % 1025,2 hPa 0,0 l/m 0,0 km/h (0 Bft) N 0 1,9 C 4,0 C 0,0 km/h (0 Bft) 100,00 %
25.10.2021 00:36 4,0 C 86 % 1025,2 hPa 0,0 l/m 0,0 km/h (0 Bft) N 0 1,9 C 4,0 C 0,0 km/h (0 Bft) 95,65 %
25.10.2021 00:35 4,0 C 86 % 1025,2 hPa 0,0 l/m 0,0 km/h (0 Bft) N 0 1,9 C 4,0 C 0,0 km/h (0 Bft) 91,30 %
25.10.2021 00:34 4,0 C 86 % 1025,3 hPa 0,0 l/m 0,0 km/h (0 Bft) N 0 1,9 C 4,0 C 0,0 km/h (0 Bft) 91,30 %
25.10.2021 00:33 4,1 C 86 % 1025,3 hPa 0,0 l/m 0,0 km/h (0 Bft) N 0 2,0 C 4,1 C 0,0 km/h (0 Bft) 95,65 %
25.10.2021 00:32 4,0 C 86 % 1025,3 hPa 0,0 l/m 0,0 km/h (0 Bft) N 0 1,9 C 4,0 C 0,0 km/h (0 Bft) 95,65 %
25.10.2021 00:31 4,0 C 86 % 1025,3 hPa 0,0 l/m 0,0 km/h (0 Bft) N 0 1,9 C 4,0 C 0,0 km/h (0 Bft) 91,30 %
25.10.2021 00:30 4,0 C 86 % 1025,3 hPa 0,0 l/m 0,0 km/h (0 Bft) N 0 1,9 C 4,0 C 0,0 km/h (0 Bft) 95,65 %
25.10.2021 00:29 4,0 C 86 % 1025,3 hPa 0,0 l/m 0,0 km/h (0 Bft) N 0 1,9 C 4,0 C 0,0 km/h (0 Bft) 95,65 %
25.10.2021 00:28 4,0 C 86 % 1025,3 hPa 0,0 l/m 0,0 km/h (0 Bft) N 0 1,9 C 4,0 C 0,0 km/h (0 Bft) 100,00 %
25.10.2021 00:27 4,0 C 86 % 1025,2 hPa 0,0 l/m 0,0 km/h (0 Bft) N 0 1,9 C 4,0 C 0,0 km/h (0 Bft) 100,00 %
25.10.2021 00:26 4,1 C 85 % 1025,3 hPa 0,0 l/m 0,0 km/h (0 Bft) N 0 1,8 C 4,1 C 0,0 km/h (0 Bft) 95,65 %
25.10.2021 00:25 4,1 C 85 % 1025,3 hPa 0,0 l/m 0,0 km/h (0 Bft) N 0 1,8 C 4,1 C 0,0 km/h (0 Bft) 95,65 %
25.10.2021 00:24 4,1 C 85 % 1025,3 hPa 0,0 l/m 0,0 km/h (0 Bft) N 0 1,8 C 4,1 C 0,0 km/h (0 Bft) 91,30 %
25.10.2021 00:23 4,1 C 85 % 1025,3 hPa 0,0 l/m 0,0 km/h (0 Bft) N 0 1,8 C 4,1 C 0,0 km/h (0 Bft) 95,65 %
25.10.2021 00:22 4,1 C 85 % 1025,3 hPa 0,0 l/m 0,0 km/h (0 Bft) N 0 1,8 C 4,1 C 0,0 km/h (0 Bft) 100,00 %
25.10.2021 00:21 4,1 C 85 % 1025,4 hPa 0,0 l/m 0,0 km/h (0 Bft) N 0 1,8 C 4,1 C 0,0 km/h (0 Bft) 91,30 %
25.10.2021 00:20 4,1 C 85 % 1025,4 hPa 0,0 l/m 0,0 km/h (0 Bft) N 0 1,8 C 4,1 C 0,0 km/h (0 Bft) 100,00 %
25.10.2021 00:19 4,1 C 85 % 1025,3 hPa 0,0 l/m 0,0 km/h (0 Bft) N 0 1,8 C 4,1 C 0,0 km/h (0 Bft) 95,65 %
25.10.2021 00:18 4,1 C 85 % 1025,3 hPa 0,0 l/m 0,0 km/h (0 Bft) N 0 1,8 C 4,1 C 0,0 km/h (0 Bft) 100,00 %
25.10.2021 00:17 4,1 C 85 % 1025,3 hPa 0,0 l/m 0,0 km/h (0 Bft) N 0 1,8 C 4,1 C 0,0 km/h (0 Bft) 91,30 %
25.10.2021 00:16 4,2 C 85 % 1025,3 hPa 0,0 l/m 0,0 km/h (0 Bft) N 0 1,9 C 4,2 C 0,0 km/h (0 Bft) 91,30 %
25.10.2021 00:15 4,2 C 85 % 1025,3 hPa 0,0 l/m 0,0 km/h (0 Bft) N 0 1,9 C 4,2 C 0,0 km/h (0 Bft) 100,00 %
25.10.2021 00:14 4,2 C 85 % 1025,3 hPa 0,0 l/m 0,0 km/h (0 Bft) N 0 1,9 C 4,2 C 0,0 km/h (0 Bft) 95,65 %
25.10.2021 00:13 4,2 C 85 % 1025,3 hPa 0,0 l/m 0,0 km/h (0 Bft) N 0 1,9 C 4,2 C 0,0 km/h (0 Bft) 95,65 %
25.10.2021 00:12 4,2 C 85 % 1025,3 hPa 0,0 l/m 0,0 km/h (0 Bft) N 0 1,9 C 4,2 C 0,0 km/h (0 Bft) 91,30 %
25.10.2021 00:11 4,2 C 85 % 1025,3 hPa 0,0 l/m 0,0 km/h (0 Bft) N 0 1,9 C 4,2 C 0,0 km/h (0 Bft) 95,65 %
25.10.2021 00:10 4,3 C 85 % 1025,3 hPa 0,0 l/m 0,0 km/h (0 Bft) N 0 2,0 C 4,3 C 0,0 km/h (0 Bft) 91,30 %
25.10.2021 00:09 4,3 C 85 % 1025,2 hPa 0,0 l/m 0,0 km/h (0 Bft) N 0 2,0 C 4,3 C 0,0 km/h (0 Bft) 95,65 %
25.10.2021 00:08 4,3 C 85 % 1025,4 hPa 0,0 l/m 0,0 km/h (0 Bft) N 0 2,0 C 4,3 C 0,0 km/h (0 Bft) 95,65 %
25.10.2021 00:07 4,3 C 85 % 1025,4 hPa 0,0 l/m 0,0 km/h (0 Bft) N 0 2,0 C 4,3 C 0,0 km/h (0 Bft) 91,30 %
25.10.2021 00:06 4,3 C 85 % 1025,4 hPa 0,0 l/m 0,0 km/h (0 Bft) N 0 2,0 C 4,3 C 0,0 km/h (0 Bft) 100,00 %
25.10.2021 00:05 4,3 C 85 % 1025,4 hPa 0,0 l/m 0,0 km/h (0 Bft) N 0 2,0 C 4,3 C 0,0 km/h (0 Bft) 91,30 %
25.10.2021 00:04 4,3 C 85 % 1025,4 hPa 0,0 l/m 0,0 km/h (0 Bft) N 0 2,0 C 4,3 C 0,0 km/h (0 Bft) 91,30 %
25.10.2021 00:03 4,3 C 85 % 1025,4 hPa 0,0 l/m 0,0 km/h (0 Bft) N 0 2,0 C 4,3 C 0,0 km/h (0 Bft) 95,65 %
25.10.2021 00:02 4,2 C 85 % 1025,5 hPa 0,0 l/m 0,0 km/h (0 Bft) N 0 1,9 C 4,2 C 0,0 km/h (0 Bft) 91,30 %
25.10.2021 00:01 4,3 C 85 % 1025,4 hPa 0,0 l/m 0,0 km/h (0 Bft) N 0 2,0 C 4,3 C 0,0 km/h (0 Bft) 91,30 %
25.10.2021 00:00 4,3 C 85 % 1025,5 hPa 0,0 l/m 0,0 km/h (0 Bft) N 0 2,0 C 4,3 C 0,0 km/h (0 Bft) 91,30 %
_ Min-Zeit 07:09 00:00 07:21 - 00:00 - - 07:09 07:09 00:00 03:04
Minimum _ 1,2 C 85 % 1023,7 hPa - 0,0 km/h (0 Bft) - - 0,6 C 1,2 C 0,0 km/h (0 Bft) 30,43 %
_ Max-Zeit 10:46 08:11 00:00 09:03 09:54 - - 10:44 10:46 10:37 00:06
Maximum _ 5,5 C 98 % 1025,5 hPa 0,2 l/m 3,2 km/h
NO (1 Bft)
- - 4,5 C 5,5 C 4,8 km/h
SO (1 Bft)
100,00 %
Durchschnitt _ 2,7 C 93 % 1024,4 hPa #0,2 l/m 0,0 km/h (0 Bft) SO - 1,7 C 2,7 C 0,1 km/h (0 Bft) 95,90 %